Darstellungsparameter: Aktuell verwendete Einstellungen:
Skalierung der Graphiken ... ?
xyx+y,   Skalierungsfaktor:      Skalierung: Modus: x, Faktor: 1
Darstellungszeitraum ... ?
Vom - - bis: - -   Zeitraum: 22.11.2013 - 28.11.2013
Min/Max/Avg-Anzeige ... ?
Zeige MMA aktuell
Zeige MMA Monat
Zeige MMA alles
Zeige --A aktuell
Zeige --A Monat
Zeige --A alles
Keine MMA-Anzeige
MMA:
Keine MMA-Graphiken
MMA-Basis: 22.11.2013 - 28.11.2013
Quicknavigation für Darstellung... ?
Tage:      1T, 2T, 3T, 5T -1T -2T -3T -5T +1T +2T +3T +5T
Wochen: 1W, 2W, 3W -1W -2W -3W +1W +2W +3W
Monate: 1M, 3M, 6M -1M -3M -6M +1M +3M +6M
Jahre:    1J, 3J, 5J, 10J -1J -3J -5J -10J +1J +3J +5J +10J
Nutze für die Darstellung ... ?
Originaldaten oder Mittelwerte auf ...
Stundenbasis Tagesbasis Wochenbasis
Monatsbasis Jahresbasis      Datenbasis: Original-Daten
Darstellen als:
Statistik (Auto) Statistik J:M      Darstellung:
Zur Graphik,    zurück zur Übersicht aller Sensoren.
 
Tabellarische Datenbersicht: ?
 
Sensor: Nr:Datum:Temp:Abs-Feuchte:Windchill:Wind:
Aussen-T/F 1 22-11-2013 04:55:00 3.7 C 5.42 g/m*3 2.09 C 6.4 km/h
2 22-11-2013 05:00:00 3.7 C 5.42 g/m*3 2.09 C 6.4 km/h
3 22-11-2013 05:05:00 3.7 C 5.42 g/m*3 0.82 C 11.3 km/h
4 22-11-2013 05:10:00 3.7 C 5.42 g/m*3 0.82 C 11.3 km/h
5 22-11-2013 05:15:00 3.7 C 5.42 g/m*3 1.58 C 8.1 km/h
6 22-11-2013 05:20:00 3.7 C 5.42 g/m*3 3.7 C 4.8 km/h
7 22-11-2013 05:25:00 3.7 C 5.42 g/m*3 1.58 C 8.1 km/h
8 22-11-2013 05:30:00 3.7 C 5.42 g/m*3 1.18 C 9.7 km/h
9 22-11-2013 05:35:00 3.7 C 5.42 g/m*3 1.58 C 8.1 km/h
10 22-11-2013 05:40:00 3.7 C 5.42 g/m*3 0.82 C 11.3 km/h
11 22-11-2013 07:25:00 3.9 C 5.49 g/m*3 1.06 C 11.3 km/h
12 22-11-2013 07:30:00 3.9 C 5.49 g/m*3 1.41 C 9.7 km/h
13 22-11-2013 07:35:00 3.9 C 5.49 g/m*3 1.82 C 8.1 km/h
14 22-11-2013 07:40:00 3.9 C 5.49 g/m*3 2.32 C 6.4 km/h
15 22-11-2013 07:45:00 3.9 C 5.49 g/m*3 2.32 C 6.4 km/h
16 22-11-2013 07:50:00 3.9 C 5.43 g/m*3 1.82 C 8.1 km/h
17 22-11-2013 07:55:00 3.9 C 5.43 g/m*3 1.82 C 8.1 km/h
18 22-11-2013 08:00:00 3.9 C 5.43 g/m*3 2.32 C 6.4 km/h
19 22-11-2013 08:05:00 4 C 5.47 g/m*3 1.53 C 9.7 km/h
20 22-11-2013 08:10:00 4 C 5.53 g/m*3 1.93 C 8.1 km/h
21 22-11-2013 08:15:00 4 C 5.47 g/m*3 1.53 C 9.7 km/h
22 22-11-2013 08:22:00 4 C 5.47 g/m*3 4 C 0 km/h
23 22-11-2013 08:25:00 4 C 5.47 g/m*3 4 C 3.2 km/h
24 22-11-2013 08:30:00 4 C 5.47 g/m*3 1.93 C 8.1 km/h
25 22-11-2013 08:35:00 4 C 5.47 g/m*3 1.53 C 9.7 km/h
Sensor: Nr:Datum:Temp:Abs-Feuchte:Windchill:Wind:
Aussen-T/F 26 22-11-2013 08:40:00 4 C 5.53 g/m*3 1.53 C 9.7 km/h
27 22-11-2013 08:45:00 4 C 5.47 g/m*3 2.44 C 6.4 km/h
28 22-11-2013 08:50:00 4 C 5.53 g/m*3 1.93 C 8.1 km/h
29 22-11-2013 08:55:00 4 C 5.53 g/m*3 1.93 C 8.1 km/h
30 22-11-2013 09:00:00 4 C 5.53 g/m*3 1.93 C 8.1 km/h
31 22-11-2013 09:05:00 4 C 5.53 g/m*3 1.53 C 9.7 km/h
32 22-11-2013 09:10:00 4 C 5.53 g/m*3 1.18 C 11.3 km/h
33 22-11-2013 09:15:00 4 C 5.53 g/m*3 1.93 C 8.1 km/h
34 22-11-2013 09:20:00 4 C 5.53 g/m*3 1.93 C 8.1 km/h
35 22-11-2013 09:25:00 4.1 C 5.5 g/m*3 1.31 C 11.3 km/h
36 22-11-2013 09:30:00 4.1 C 5.57 g/m*3 2.05 C 8.1 km/h
37 22-11-2013 09:35:00 4.1 C 5.57 g/m*3 4.1 C 4.8 km/h
38 22-11-2013 09:40:00 4.1 C 5.57 g/m*3 2.05 C 8.1 km/h
39 22-11-2013 09:45:00 4.1 C 5.5 g/m*3 2.55 C 6.4 km/h
40 22-11-2013 09:50:00 4.1 C 5.57 g/m*3 1.31 C 11.3 km/h
41 22-11-2013 09:55:00 4.1 C 5.5 g/m*3 1 C 12.9 km/h
42 22-11-2013 10:00:00 4.1 C 5.57 g/m*3 1.31 C 11.3 km/h
43 22-11-2013 10:05:00 4.1 C 5.57 g/m*3 1.31 C 11.3 km/h
44 22-11-2013 10:10:00 4.2 C 5.61 g/m*3 4.2 C 3.2 km/h
45 22-11-2013 10:15:00 4.2 C 5.61 g/m*3 2.17 C 8.1 km/h
46 22-11-2013 10:20:00 4.2 C 5.61 g/m*3 1.77 C 9.7 km/h
47 22-11-2013 10:25:00 4.2 C 5.61 g/m*3 1.43 C 11.3 km/h
48 22-11-2013 10:30:00 4.2 C 5.61 g/m*3 2.67 C 6.4 km/h
49 22-11-2013 10:35:00 4.2 C 5.61 g/m*3 4.2 C 4.8 km/h
50 22-11-2013 10:40:00 4.2 C 5.61 g/m*3 4.2 C 4.8 km/h
Sensor: Nr:Datum:Temp:Abs-Feuchte:Windchill:Wind:
Aussen-T/F 51 22-11-2013 10:45:00 4.3 C 5.64 g/m*3 2.78 C 6.4 km/h
52 22-11-2013 10:50:00 4.3 C 5.64 g/m*3 1.89 C 9.7 km/h
53 22-11-2013 10:55:00 4.3 C 5.58 g/m*3 2.78 C 6.4 km/h
54 22-11-2013 11:00:00 4.3 C 5.58 g/m*3 4.3 C 4.8 km/h
55 22-11-2013 11:05:00 4.4 C 5.68 g/m*3 2.9 C 6.4 km/h
56 22-11-2013 11:10:00 4.4 C 5.62 g/m*3 2.01 C 9.7 km/h
57 22-11-2013 11:15:00 4.4 C 5.62 g/m*3 1.36 C 12.9 km/h
58 22-11-2013 11:20:00 4.4 C 5.62 g/m*3 1.67 C 11.3 km/h
59 22-11-2013 11:25:00 4.4 C 5.62 g/m*3 2.4 C 8.1 km/h
60 22-11-2013 11:30:00 4.4 C 5.62 g/m*3 4.4 C 4.8 km/h
61 22-11-2013 11:35:00 4.4 C 5.62 g/m*3 2.4 C 8.1 km/h
62 22-11-2013 11:40:00 4.4 C 5.68 g/m*3 2.4 C 8.1 km/h
63 22-11-2013 11:45:00 4.4 C 5.62 g/m*3 2.9 C 6.4 km/h
64 22-11-2013 11:50:00 4.5 C 5.65 g/m*3 2.52 C 8.1 km/h
65 22-11-2013 11:55:00 4.5 C 5.65 g/m*3 2.52 C 8.1 km/h
66 22-11-2013 12:00:00 4.5 C 5.65 g/m*3 2.13 C 9.7 km/h
67 22-11-2013 12:05:00 4.6 C 5.69 g/m*3 2.64 C 8.1 km/h
68 22-11-2013 12:10:00 4.6 C 5.69 g/m*3 3.13 C 6.4 km/h
69 22-11-2013 12:15:00 4.7 C 5.8 g/m*3 2.76 C 8.1 km/h
70 22-11-2013 12:20:00 4.7 C 5.73 g/m*3 2.37 C 9.7 km/h
71 22-11-2013 12:25:00 4.8 C 5.77 g/m*3 2.87 C 8.1 km/h
72 22-11-2013 12:30:00 4.8 C 5.77 g/m*3 2.87 C 8.1 km/h
73 22-11-2013 12:35:00 4.9 C 5.81 g/m*3 2.61 C 9.7 km/h
74 22-11-2013 12:40:00 4.9 C 5.81 g/m*3 2.61 C 9.7 km/h
75 22-11-2013 12:45:00 4.9 C 5.74 g/m*3 3.48 C 6.4 km/h
Sensor: Nr:Datum:Temp:Abs-Feuchte:Windchill:Wind:
Aussen-T/F 76 22-11-2013 12:50:00 4.9 C 5.81 g/m*3 1.97 C 12.9 km/h
77 22-11-2013 12:55:00 5 C 5.78 g/m*3 2.72 C 9.7 km/h
78 22-11-2013 13:00:00 5 C 5.84 g/m*3 2.72 C 9.7 km/h
79 22-11-2013 13:05:00 4.9 C 5.74 g/m*3 1.97 C 12.9 km/h
80 22-11-2013 13:10:00 4.9 C 5.74 g/m*3 1.7 C 14.5 km/h
81 22-11-2013 13:15:00 4.9 C 5.81 g/m*3 2.61 C 9.7 km/h
82 22-11-2013 13:20:00 4.9 C 5.81 g/m*3 1.97 C 12.9 km/h
83 22-11-2013 13:25:00 4.9 C 5.81 g/m*3 2.61 C 9.7 km/h
84 22-11-2013 13:30:00 4.9 C 5.81 g/m*3 2.61 C 9.7 km/h
85 22-11-2013 13:35:00 5 C 5.84 g/m*3 2.39 C 11.3 km/h
86 22-11-2013 13:40:00 5 C 5.84 g/m*3 2.39 C 11.3 km/h
87 22-11-2013 13:45:00 5 C 5.84 g/m*3 2.72 C 9.7 km/h
88 22-11-2013 13:50:00 5 C 5.84 g/m*3 3.11 C 8.1 km/h
89 22-11-2013 13:55:00 5 C 5.84 g/m*3 1.83 C 14.5 km/h
90 22-11-2013 14:00:00 5 C 5.84 g/m*3 2.09 C 12.9 km/h
91 22-11-2013 14:05:00 5 C 5.84 g/m*3 3.59 C 6.4 km/h
92 22-11-2013 14:10:00 5 C 5.91 g/m*3 2.72 C 9.7 km/h
93 22-11-2013 14:15:00 5 C 5.91 g/m*3 3.59 C 6.4 km/h
94 22-11-2013 14:20:00 5 C 5.91 g/m*3 2.72 C 9.7 km/h
95 22-11-2013 14:25:00 4.9 C 5.87 g/m*3 2.99 C 8.1 km/h
96 22-11-2013 14:30:00 4.9 C 5.87 g/m*3 2.61 C 9.7 km/h
97 22-11-2013 14:35:00 4.9 C 5.87 g/m*3 2.99 C 8.1 km/h
98 22-11-2013 14:40:00 5 C 5.91 g/m*3 3.59 C 6.4 km/h
99 22-11-2013 14:45:00 5 C 5.91 g/m*3 3.11 C 8.1 km/h
100 22-11-2013 14:50:00 5.1 C 5.88 g/m*3 2.51 C 11.3 km/h
Sensor: Nr:Datum:Temp:Abs-Feuchte:Windchill:Wind:
Aussen-T/F 101 22-11-2013 14:55:00 5.1 C 5.88 g/m*3 3.71 C 6.4 km/h
102 22-11-2013 15:00:00 5.1 C 5.95 g/m*3 3.71 C 6.4 km/h
103 22-11-2013 15:05:00 5.1 C 5.88 g/m*3 2.51 C 11.3 km/h
104 22-11-2013 15:10:00 5.1 C 5.95 g/m*3 3.23 C 8.1 km/h
105 22-11-2013 15:15:00 5 C 5.91 g/m*3 3.59 C 6.4 km/h
106 22-11-2013 15:20:00 5 C 5.91 g/m*3 3.59 C 6.4 km/h
107 22-11-2013 15:25:00 5 C 5.98 g/m*3 3.59 C 6.4 km/h
108 22-11-2013 15:30:00 5 C 6.05 g/m*3 2.72 C 9.7 km/h
109 22-11-2013 15:35:00 5 C 6.05 g/m*3 5 C 4.8 km/h
110 22-11-2013 15:40:00 5 C 6.05 g/m*3 3.59 C 6.4 km/h
111 23-11-2013 08:30:00 5.2 C 6.27 g/m*3 5.2 C 4.8 km/h
112 23-11-2013 08:35:00 5.2 C 6.27 g/m*3 5.2 C 3.2 km/h
113 23-11-2013 08:40:00 5.2 C 6.27 g/m*3 5.2 C 3.2 km/h
114 23-11-2013 11:15:00 6.7 C 7.6 g/m*3 6.7 C 4.8 km/h
115 23-11-2013 11:20:00 6.7 C 6.53 g/m*3 5.56 C 6.4 km/h
116 23-11-2013 11:25:00 6.7 C 6.61 g/m*3 6.7 C 4.8 km/h
117 23-11-2013 11:30:00 6.7 C 6.61 g/m*3 6.7 C 3.2 km/h
118 23-11-2013 11:35:00 6.8 C 6.58 g/m*3 5.22 C 8.1 km/h
119 23-11-2013 11:40:00 6.8 C 6.58 g/m*3 4.56 C 11.3 km/h
120 23-11-2013 11:45:00 6.8 C 6.58 g/m*3 4.56 C 11.3 km/h
121 23-11-2013 11:50:00 6.9 C 6.62 g/m*3 5.34 C 8.1 km/h
122 23-11-2013 11:55:00 6.9 C 6.62 g/m*3 6.9 C 4.8 km/h
123 23-11-2013 12:00:00 7 C 6.66 g/m*3 7 C 4.8 km/h
124 23-11-2013 12:05:00 7 C 6.66 g/m*3 5.46 C 8.1 km/h
125 23-11-2013 12:10:00 7 C 6.66 g/m*3 5.46 C 8.1 km/h
Sensor: Nr:Datum:Temp:Abs-Feuchte:Windchill:Wind:
Aussen-T/F 126 23-11-2013 12:15:00 7 C 6.66 g/m*3 4.8 C 11.3 km/h
127 23-11-2013 12:40:00 7.7 C 8.11 g/m*3 5.65 C 11.3 km/h
128 23-11-2013 12:45:00 7.7 C 6.65 g/m*3 6.71 C 6.4 km/h
129 23-11-2013 12:50:00 7.7 C 6.65 g/m*3 5.38 C 12.9 km/h
130 23-11-2013 12:55:00 7.7 C 6.65 g/m*3 5.65 C 11.3 km/h
131 23-11-2013 13:00:00 7.6 C 6.61 g/m*3 5.82 C 9.7 km/h
132 23-11-2013 13:05:00 7.7 C 6.65 g/m*3 5.15 C 14.5 km/h
133 23-11-2013 13:10:00 7.7 C 6.65 g/m*3 5.15 C 14.5 km/h
134 23-11-2013 13:15:00 7.7 C 6.65 g/m*3 5.38 C 12.9 km/h
135 23-11-2013 13:20:00 7.7 C 6.57 g/m*3 5.38 C 12.9 km/h
136 23-11-2013 13:25:00 7.7 C 6.49 g/m*3 5.15 C 14.5 km/h
137 23-11-2013 13:30:00 7.7 C 6.57 g/m*3 5.65 C 11.3 km/h
138 23-11-2013 13:35:00 7.7 C 6.57 g/m*3 5.94 C 9.7 km/h
139 23-11-2013 13:40:00 7.8 C 6.61 g/m*3 5.51 C 12.9 km/h
140 23-11-2013 13:45:00 7.7 C 6.57 g/m*3 5.38 C 12.9 km/h
141 23-11-2013 13:50:00 7.7 C 6.49 g/m*3 5.38 C 12.9 km/h
142 23-11-2013 13:55:00 7.7 C 6.49 g/m*3 5.65 C 11.3 km/h
143 23-11-2013 14:00:00 7.7 C 6.57 g/m*3 5.38 C 12.9 km/h
144 23-11-2013 14:05:00 7.7 C 6.57 g/m*3 5.94 C 9.7 km/h
145 23-11-2013 14:10:00 7.7 C 6.57 g/m*3 6.28 C 8.1 km/h
146 23-11-2013 14:15:00 7.7 C 6.57 g/m*3 5.38 C 12.9 km/h
147 23-11-2013 14:20:00 7.7 C 6.57 g/m*3 5.65 C 11.3 km/h
148 23-11-2013 14:25:00 7.7 C 6.57 g/m*3 5.15 C 14.5 km/h
149 23-11-2013 14:30:00 7.7 C 6.57 g/m*3 5.38 C 12.9 km/h
150 23-11-2013 14:35:00 7.7 C 6.49 g/m*3 5.94 C 9.7 km/h
Sensor: Nr:Datum:Temp:Abs-Feuchte:Windchill:Wind:
Aussen-T/F 151 23-11-2013 14:40:00 7.7 C 6.49 g/m*3 5.94 C 9.7 km/h
152 23-11-2013 14:45:00 7.7 C 6.49 g/m*3 6.71 C 6.4 km/h
153 23-11-2013 14:50:00 7.7 C 6.49 g/m*3 5.94 C 9.7 km/h
154 23-11-2013 14:55:00 7.7 C 6.49 g/m*3 5.65 C 11.3 km/h
155 23-11-2013 15:00:00 7.7 C 6.49 g/m*3 5.65 C 11.3 km/h
156 23-11-2013 15:05:00 7.7 C 6.49 g/m*3 5.94 C 9.7 km/h
157 23-11-2013 15:10:00 7.7 C 6.49 g/m*3 5.65 C 11.3 km/h
158 23-11-2013 15:15:00 7.7 C 6.57 g/m*3 5.94 C 9.7 km/h
159 23-11-2013 15:20:00 7.6 C 6.53 g/m*3 6.16 C 8.1 km/h
160 23-11-2013 15:25:00 7.6 C 6.53 g/m*3 6.6 C 6.4 km/h
161 23-11-2013 15:30:00 7.6 C 6.61 g/m*3 5.53 C 11.3 km/h
162 23-11-2013 15:35:00 7.5 C 6.56 g/m*3 5.41 C 11.3 km/h
163 23-11-2013 15:40:00 7.4 C 6.6 g/m*3 5.93 C 8.1 km/h
164 23-11-2013 15:45:00 7.4 C 6.6 g/m*3 5.02 C 12.9 km/h
165 23-11-2013 15:50:00 7.4 C 6.6 g/m*3 7.4 C 4.8 km/h
166 23-11-2013 15:55:00 7.4 C 6.6 g/m*3 5.93 C 8.1 km/h
167 23-11-2013 16:00:00 7.3 C 6.64 g/m*3 5.47 C 9.7 km/h
168 23-11-2013 16:05:00 7.3 C 6.64 g/m*3 5.47 C 9.7 km/h
169 23-11-2013 16:10:00 7.3 C 6.64 g/m*3 5.81 C 8.1 km/h
170 23-11-2013 16:15:00 7.3 C 6.72 g/m*3 5.47 C 9.7 km/h
171 23-11-2013 16:20:00 7.3 C 6.72 g/m*3 5.16 C 11.3 km/h
172 23-11-2013 16:25:00 7.3 C 6.79 g/m*3 5.81 C 8.1 km/h
173 23-11-2013 16:30:00 7.2 C 6.75 g/m*3 6.13 C 6.4 km/h
174 23-11-2013 16:35:00 7.2 C 6.75 g/m*3 5.69 C 8.1 km/h
175 23-11-2013 16:40:00 7.2 C 6.75 g/m*3 5.35 C 9.7 km/h
Sensor: Nr:Datum:Temp:Abs-Feuchte:Windchill:Wind:
Aussen-T/F 176 23-11-2013 16:45:00 7.1 C 6.79 g/m*3 6.02 C 6.4 km/h
177 23-11-2013 16:50:00 7.1 C 6.79 g/m*3 5.58 C 8.1 km/h
178 23-11-2013 16:55:00 7.1 C 6.79 g/m*3 5.23 C 9.7 km/h
179 23-11-2013 17:00:00 7.1 C 6.79 g/m*3 6.02 C 6.4 km/h
180 23-11-2013 17:05:00 7 C 6.74 g/m*3 7 C 4.8 km/h
181 23-11-2013 17:10:00 7 C 6.82 g/m*3 7 C 4.8 km/h
182 23-11-2013 17:15:00 6.9 C 6.77 g/m*3 6.9 C 4.8 km/h
183 23-11-2013 17:20:00 6.9 C 6.77 g/m*3 5.79 C 6.4 km/h
184 23-11-2013 17:25:00 6.9 C 6.77 g/m*3 4.99 C 9.7 km/h
185 23-11-2013 17:30:00 6.9 C 6.77 g/m*3 4.99 C 9.7 km/h
186 23-11-2013 17:35:00 6.9 C 6.77 g/m*3 6.9 C 4.8 km/h
187 23-11-2013 17:40:00 6.9 C 6.77 g/m*3 5.34 C 8.1 km/h
188 23-11-2013 17:45:00 6.9 C 6.85 g/m*3 5.79 C 6.4 km/h
189 23-11-2013 17:50:00 6.9 C 6.85 g/m*3 4.68 C 11.3 km/h
190 23-11-2013 17:55:00 6.9 C 6.85 g/m*3 4.68 C 11.3 km/h
191 23-11-2013 18:00:00 6.9 C 6.85 g/m*3 5.79 C 6.4 km/h
192 23-11-2013 18:05:00 6.9 C 6.85 g/m*3 5.79 C 6.4 km/h
193 23-11-2013 18:10:00 6.8 C 6.81 g/m*3 5.22 C 8.1 km/h
194 23-11-2013 18:15:00 6.8 C 6.81 g/m*3 6.8 C 4.8 km/h
195 23-11-2013 18:20:00 6.8 C 6.81 g/m*3 5.22 C 8.1 km/h
196 23-11-2013 18:25:00 6.8 C 6.81 g/m*3 5.67 C 6.4 km/h
197 23-11-2013 18:30:00 6.8 C 6.81 g/m*3 6.8 C 4.8 km/h
198 23-11-2013 18:35:00 6.8 C 6.81 g/m*3 5.22 C 8.1 km/h
199 23-11-2013 18:40:00 6.8 C 6.81 g/m*3 5.67 C 6.4 km/h
200 23-11-2013 18:45:00 6.8 C 6.88 g/m*3 5.22 C 8.1 km/h
Sensor: Nr:Datum:Temp:Abs-Feuchte:Windchill:Wind:
Aussen-T/F 201 23-11-2013 18:50:00 6.8 C 6.88 g/m*3 6.8 C 4.8 km/h
202 23-11-2013 18:55:00 6.8 C 6.88 g/m*3 6.8 C 4.8 km/h
203 23-11-2013 19:00:00 6.8 C 6.88 g/m*3 4.56 C 11.3 km/h
204 23-11-2013 19:05:00 6.8 C 6.88 g/m*3 4.87 C 9.7 km/h
205 23-11-2013 19:10:00 6.8 C 6.88 g/m*3 5.67 C 6.4 km/h
206 23-11-2013 19:15:00 6.7 C 6.84 g/m*3 5.56 C 6.4 km/h
207 23-11-2013 19:20:00 6.7 C 6.84 g/m*3 5.11 C 8.1 km/h
208 23-11-2013 19:25:00 6.7 C 6.84 g/m*3 5.56 C 6.4 km/h
209 23-11-2013 19:30:00 6.7 C 6.84 g/m*3 5.56 C 6.4 km/h
210 23-11-2013 19:35:00 6.7 C 6.84 g/m*3 5.56 C 6.4 km/h
211 23-11-2013 19:40:00 6.7 C 6.84 g/m*3 6.7 C 4.8 km/h
212 23-11-2013 19:45:00 6.7 C 6.84 g/m*3 5.11 C 8.1 km/h
213 23-11-2013 19:50:00 6.7 C 6.84 g/m*3 6.7 C 4.8 km/h
214 23-11-2013 19:55:00 6.7 C 6.84 g/m*3 6.7 C 1.6 km/h
215 23-11-2013 20:00:00 6.7 C 6.84 g/m*3 5.56 C 6.4 km/h
216 23-11-2013 20:05:00 6.7 C 6.84 g/m*3 5.11 C 8.1 km/h
217 23-11-2013 20:10:00 6.7 C 6.84 g/m*3 5.56 C 6.4 km/h
218 23-11-2013 20:15:00 6.7 C 6.84 g/m*3 5.11 C 8.1 km/h
219 23-11-2013 20:20:00 6.7 C 6.84 g/m*3 5.56 C 6.4 km/h
220 23-11-2013 20:25:00 6.7 C 6.84 g/m*3 5.11 C 8.1 km/h
221 23-11-2013 20:30:00 6.7 C 6.84 g/m*3 4.75 C 9.7 km/h
222 23-11-2013 20:35:00 6.7 C 6.84 g/m*3 5.56 C 6.4 km/h
223 23-11-2013 20:40:00 6.7 C 6.84 g/m*3 4.75 C 9.7 km/h
224 23-11-2013 20:45:00 6.7 C 6.84 g/m*3 5.11 C 8.1 km/h
225 23-11-2013 20:50:00 6.8 C 6.88 g/m*3 5.67 C 6.4 km/h
Sensor: Nr:Datum:Temp:Abs-Feuchte:Windchill:Wind:
Aussen-T/F 226 23-11-2013 20:55:00 6.8 C 6.88 g/m*3 5.67 C 6.4 km/h
227 23-11-2013 21:00:00 6.8 C 6.88 g/m*3 6.8 C 4.8 km/h
228 23-11-2013 21:05:00 6.8 C 6.88 g/m*3 5.67 C 6.4 km/h
229 23-11-2013 21:10:00 6.8 C 6.88 g/m*3 6.8 C 3.2 km/h
230 23-11-2013 21:15:00 6.8 C 6.88 g/m*3 5.67 C 6.4 km/h
231 23-11-2013 21:20:00 6.8 C 6.88 g/m*3 4.56 C 11.3 km/h
232 23-11-2013 21:25:00 6.8 C 6.88 g/m*3 6.8 C 4.8 km/h
233 23-11-2013 21:30:00 6.8 C 6.88 g/m*3 4.56 C 11.3 km/h
234 23-11-2013 21:35:00 6.8 C 6.88 g/m*3 5.22 C 8.1 km/h
235 23-11-2013 21:40:00 6.8 C 6.81 g/m*3 4.87 C 9.7 km/h
236 23-11-2013 21:45:00 6.8 C 6.81 g/m*3 5.67 C 6.4 km/h
237 23-11-2013 21:50:00 6.8 C 6.81 g/m*3 4.87 C 9.7 km/h
238 23-11-2013 21:55:00 6.8 C 6.88 g/m*3 5.67 C 6.4 km/h
239 23-11-2013 22:00:00 6.8 C 6.88 g/m*3 5.22 C 8.1 km/h
240 23-11-2013 22:05:00 6.8 C 6.88 g/m*3 4.87 C 9.7 km/h
241 23-11-2013 22:10:00 6.8 C 6.88 g/m*3 5.67 C 6.4 km/h
242 23-11-2013 22:15:00 6.8 C 6.88 g/m*3 4.56 C 11.3 km/h
243 23-11-2013 22:20:00 6.8 C 6.88 g/m*3 5.67 C 6.4 km/h
244 23-11-2013 22:25:00 6.8 C 6.88 g/m*3 6.8 C 3.2 km/h
245 23-11-2013 22:30:00 6.8 C 6.88 g/m*3 6.8 C 4.8 km/h
246 23-11-2013 22:35:00 6.8 C 6.88 g/m*3 6.8 C 4.8 km/h
247 23-11-2013 22:40:00 6.8 C 6.88 g/m*3 5.22 C 8.1 km/h
248 23-11-2013 22:45:00 6.8 C 6.88 g/m*3 6.8 C 3.2 km/h
249 23-11-2013 22:50:00 6.8 C 6.88 g/m*3 5.67 C 6.4 km/h
250 23-11-2013 22:55:00 6.8 C 6.88 g/m*3 6.8 C 3.2 km/h
Sensor: Nr:Datum:Temp:Abs-Feuchte:Windchill:Wind:
Aussen-T/F 251 23-11-2013 23:00:00 6.8 C 6.88 g/m*3 6.8 C 1.6 km/h
252 23-11-2013 23:05:00 6.8 C 6.88 g/m*3 6.8 C 4.8 km/h
253 23-11-2013 23:10:00 6.8 C 6.88 g/m*3 6.8 C 4.8 km/h
254 23-11-2013 23:15:00 6.8 C 6.88 g/m*3 6.8 C 3.2 km/h
255 23-11-2013 23:20:00 6.8 C 6.88 g/m*3 6.8 C 3.2 km/h
256 23-11-2013 23:25:00 6.8 C 6.88 g/m*3 6.8 C 1.6 km/h
257 23-11-2013 23:30:00 6.8 C 6.88 g/m*3 6.8 C 3.2 km/h
258 23-11-2013 23:35:00 6.8 C 6.88 g/m*3 6.8 C 0 km/h
259 23-11-2013 23:40:00 6.8 C 6.88 g/m*3 6.8 C 0 km/h
260 23-11-2013 23:45:00 6.8 C 6.88 g/m*3 6.8 C 1.6 km/h
261 23-11-2013 23:50:00 6.8 C 6.88 g/m*3 6.8 C 1.6 km/h
262 23-11-2013 23:55:00 6.8 C 6.88 g/m*3 5.22 C 8.1 km/h
263 24-11-2013 00:00:00 6.8 C 6.88 g/m*3 6.8 C 1.6 km/h
264 24-11-2013 00:05:00 6.8 C 6.88 g/m*3 6.8 C 3.2 km/h
265 24-11-2013 00:10:00 6.8 C 6.88 g/m*3 6.8 C 4.8 km/h
266 24-11-2013 00:15:00 6.8 C 6.88 g/m*3 6.8 C 3.2 km/h
267 24-11-2013 00:20:00 6.8 C 6.88 g/m*3 6.8 C 4.8 km/h
268 24-11-2013 00:25:00 6.8 C 6.88 g/m*3 5.67 C 6.4 km/h
269 24-11-2013 00:30:00 6.8 C 6.88 g/m*3 6.8 C 3.2 km/h
270 24-11-2013 00:35:00 6.8 C 6.88 g/m*3 5.67 C 6.4 km/h
271 24-11-2013 00:40:00 6.8 C 6.88 g/m*3 6.8 C 4.8 km/h
272 24-11-2013 00:45:00 6.8 C 6.88 g/m*3 6.8 C 3.2 km/h
273 24-11-2013 00:50:00 6.8 C 6.88 g/m*3 5.67 C 6.4 km/h
274 24-11-2013 00:55:00 6.8 C 6.88 g/m*3 6.8 C 4.8 km/h
275 24-11-2013 01:00:00 6.8 C 6.88 g/m*3 6.8 C 0 km/h
Sensor: Nr:Datum:Temp:Abs-Feuchte:Windchill:Wind:
Aussen-T/F 276 24-11-2013 01:05:00 6.8 C 6.88 g/m*3 6.8 C 1.6 km/h
277 24-11-2013 01:10:00 6.8 C 6.88 g/m*3 6.8 C 1.6 km/h
278 24-11-2013 01:15:00 6.8 C 6.88 g/m*3 6.8 C 4.8 km/h
279 24-11-2013 01:20:00 6.8 C 6.88 g/m*3 6.8 C 3.2 km/h
280 24-11-2013 01:25:00 6.8 C 6.88 g/m*3 6.8 C 1.6 km/h
281 24-11-2013 01:30:00 6.8 C 6.81 g/m*3 6.8 C 1.6 km/h
282 24-11-2013 01:35:00 6.8 C 6.88 g/m*3 6.8 C 4.8 km/h
283 24-11-2013 01:40:00 6.8 C 6.88 g/m*3 5.22 C 8.1 km/h
284 24-11-2013 01:45:00 6.8 C 6.88 g/m*3 5.22 C 8.1 km/h
285 24-11-2013 01:50:00 6.8 C 6.81 g/m*3 6.8 C 1.6 km/h
286 24-11-2013 01:55:00 6.8 C 6.81 g/m*3 5.67 C 6.4 km/h
287 24-11-2013 02:00:00 6.8 C 6.81 g/m*3 6.8 C 4.8 km/h
288 24-11-2013 02:05:00 6.7 C 6.76 g/m*3 5.56 C 6.4 km/h
289 24-11-2013 02:10:00 6.7 C 6.76 g/m*3 5.56 C 6.4 km/h
290 24-11-2013 02:15:00 6.7 C 6.76 g/m*3 4.75 C 9.7 km/h
291 24-11-2013 02:20:00 6.7 C 6.76 g/m*3 4.75 C 9.7 km/h
292 24-11-2013 02:25:00 6.8 C 6.81 g/m*3 6.8 C 4.8 km/h
293 24-11-2013 02:30:00 6.7 C 6.76 g/m*3 6.7 C 4.8 km/h
294 24-11-2013 02:35:00 6.7 C 6.76 g/m*3 6.7 C 4.8 km/h
295 24-11-2013 02:40:00 6.7 C 6.76 g/m*3 6.7 C 1.6 km/h
296 24-11-2013 02:45:00 6.7 C 6.76 g/m*3 6.7 C 4.8 km/h
297 24-11-2013 02:50:00 6.7 C 6.69 g/m*3 6.7 C 1.6 km/h
298 24-11-2013 02:55:00 6.7 C 6.69 g/m*3 6.7 C 4.8 km/h
299 24-11-2013 03:00:00 6.7 C 6.69 g/m*3 6.7 C 4.8 km/h
300 24-11-2013 03:05:00 6.7 C 6.69 g/m*3 5.11 C 8.1 km/h
Sensor: Nr:Datum:Temp:Abs-Feuchte:Windchill:Wind:
Aussen-T/F 301 24-11-2013 03:10:00 6.7 C 6.61 g/m*3 5.56 C 6.4 km/h
302 24-11-2013 03:15:00 6.7 C 6.61 g/m*3 6.7 C 3.2 km/h
303 24-11-2013 03:20:00 6.6 C 6.57 g/m*3 6.6 C 4.8 km/h
304 24-11-2013 03:25:00 6.6 C 6.64 g/m*3 5.44 C 6.4 km/h
305 24-11-2013 03:30:00 6.6 C 6.57 g/m*3 6.6 C 3.2 km/h
306 24-11-2013 03:35:00 6.6 C 6.57 g/m*3 6.6 C 4.8 km/h
307 24-11-2013 03:40:00 6.5 C 6.6 g/m*3 4.87 C 8.1 km/h
308 24-11-2013 03:45:00 6.5 C 6.6 g/m*3 4.87 C 8.1 km/h
309 24-11-2013 03:50:00 6.4 C 6.56 g/m*3 5.21 C 6.4 km/h
310 24-11-2013 03:55:00 6.4 C 6.48 g/m*3 4.75 C 8.1 km/h
311 24-11-2013 04:00:00 6.4 C 6.48 g/m*3 5.21 C 6.4 km/h
312 24-11-2013 04:05:00 6.4 C 6.48 g/m*3 4.75 C 8.1 km/h
313 24-11-2013 04:10:00 6.5 C 6.52 g/m*3 6.5 C 4.8 km/h
314 24-11-2013 04:15:00 6.5 C 6.52 g/m*3 6.5 C 4.8 km/h
315 24-11-2013 04:20:00 6.4 C 6.48 g/m*3 6.4 C 3.2 km/h
316 24-11-2013 04:25:00 6.4 C 6.48 g/m*3 6.4 C 4.8 km/h
317 24-11-2013 04:30:00 6.4 C 6.48 g/m*3 5.21 C 6.4 km/h
318 24-11-2013 04:35:00 6.3 C 6.51 g/m*3 5.1 C 6.4 km/h
319 24-11-2013 04:40:00 6.2 C 6.47 g/m*3 4.98 C 6.4 km/h
320 24-11-2013 04:45:00 6.2 C 6.47 g/m*3 4.52 C 8.1 km/h
321 24-11-2013 04:50:00 6.1 C 6.5 g/m*3 3.43 C 12.9 km/h
322 24-11-2013 04:55:00 6.1 C 6.5 g/m*3 3.43 C 12.9 km/h
323 24-11-2013 05:00:00 6 C 6.46 g/m*3 3.31 C 12.9 km/h
324 24-11-2013 05:05:00 5.9 C 6.42 g/m*3 3.48 C 11.3 km/h
325 24-11-2013 05:10:00 5.8 C 6.45 g/m*3 3.68 C 9.7 km/h
Sensor: Nr:Datum:Temp:Abs-Feuchte:Windchill:Wind:
Aussen-T/F 326 24-11-2013 05:15:00 5.8 C 6.45 g/m*3 3.68 C 9.7 km/h
327 24-11-2013 05:20:00 5.7 C 6.4 g/m*3 3.93 C 8.1 km/h
328 24-11-2013 05:25:00 5.7 C 6.4 g/m*3 3.93 C 8.1 km/h
329 24-11-2013 05:30:00 5.6 C 6.36 g/m*3 5.6 C 4.8 km/h
330 24-11-2013 05:35:00 5.6 C 6.36 g/m*3 5.6 C 3.2 km/h
331 24-11-2013 05:40:00 5.6 C 6.36 g/m*3 4.29 C 6.4 km/h
332 24-11-2013 05:45:00 5.6 C 6.43 g/m*3 3.81 C 8.1 km/h
333 24-11-2013 05:50:00 5.5 C 6.39 g/m*3 5.5 C 3.2 km/h
334 24-11-2013 05:55:00 5.4 C 6.35 g/m*3 4.06 C 6.4 km/h
335 24-11-2013 06:00:00 5.4 C 6.28 g/m*3 3.58 C 8.1 km/h
336 24-11-2013 06:05:00 5.4 C 6.35 g/m*3 3.2 C 9.7 km/h
337 24-11-2013 06:10:00 5.4 C 6.35 g/m*3 4.06 C 6.4 km/h
338 24-11-2013 06:15:00 5.3 C 6.31 g/m*3 5.3 C 4.8 km/h
339 24-11-2013 06:20:00 5.3 C 6.31 g/m*3 3.94 C 6.4 km/h
340 24-11-2013 06:25:00 5.3 C 6.31 g/m*3 3.94 C 6.4 km/h
341 24-11-2013 06:30:00 5.3 C 6.31 g/m*3 5.3 C 4.8 km/h
342 24-11-2013 06:35:00 5.3 C 6.31 g/m*3 3.46 C 8.1 km/h
343 24-11-2013 06:40:00 5.2 C 6.27 g/m*3 3.34 C 8.1 km/h
344 24-11-2013 06:45:00 5.2 C 6.27 g/m*3 3.82 C 6.4 km/h
345 24-11-2013 06:50:00 5.2 C 6.27 g/m*3 5.2 C 4.8 km/h
346 24-11-2013 06:55:00 5.2 C 6.27 g/m*3 3.34 C 8.1 km/h
347 24-11-2013 07:00:00 5.1 C 6.22 g/m*3 3.71 C 6.4 km/h
348 24-11-2013 07:05:00 5.1 C 6.16 g/m*3 3.23 C 8.1 km/h
349 24-11-2013 07:10:00 5.1 C 6.22 g/m*3 3.71 C 6.4 km/h
350 24-11-2013 07:15:00 5.1 C 6.22 g/m*3 3.71 C 6.4 km/h
Sensor: Nr:Datum:Temp:Abs-Feuchte:Windchill:Wind:
Aussen-T/F 351 24-11-2013 07:20:00 5.1 C 6.16 g/m*3 3.71 C 6.4 km/h
352 24-11-2013 07:25:00 5.1 C 6.16 g/m*3 3.71 C 6.4 km/h
353 24-11-2013 07:30:00 5.1 C 6.16 g/m*3 5.1 C 4.8 km/h
354 24-11-2013 07:35:00 5 C 6.12 g/m*3 5 C 4.8 km/h
355 24-11-2013 07:40:00 5 C 6.12 g/m*3 5 C 1.6 km/h
356 24-11-2013 07:45:00 5 C 6.12 g/m*3 5 C 0 km/h
357 24-11-2013 07:50:00 4.9 C 6.08 g/m*3 4.9 C 3.2 km/h
358 24-11-2013 07:55:00 4.9 C 6.08 g/m*3 4.9 C 3.2 km/h
359 24-11-2013 08:00:00 4.9 C 6.08 g/m*3 4.9 C 3.2 km/h
360 24-11-2013 08:05:00 4.8 C 6.04 g/m*3 4.8 C 4.8 km/h
361 24-11-2013 08:10:00 4.8 C 6.04 g/m*3 4.8 C 3.2 km/h
362 24-11-2013 08:15:00 4.7 C 6 g/m*3 4.7 C 4.8 km/h
363 24-11-2013 08:20:00 4.6 C 5.96 g/m*3 4.6 C 3.2 km/h
364 24-11-2013 08:25:00 4.6 C 5.96 g/m*3 4.6 C 1.6 km/h
365 24-11-2013 08:30:00 4.6 C 5.96 g/m*3 4.6 C 3.2 km/h
366 24-11-2013 08:35:00 4.6 C 5.96 g/m*3 4.6 C 1.6 km/h
367 24-11-2013 09:00:00 4.3 C 5.77 g/m*3 4.3 C 4.8 km/h
368 24-11-2013 09:05:00 4.4 C 5.81 g/m*3 4.4 C 1.6 km/h
369 24-11-2013 09:10:00 4.4 C 5.75 g/m*3 4.4 C 4.8 km/h
370 24-11-2013 09:15:00 4.4 C 5.75 g/m*3 4.4 C 3.2 km/h
371 24-11-2013 09:20:00 4.4 C 5.75 g/m*3 4.4 C 4.8 km/h
372 24-11-2013 09:25:00 4.4 C 5.75 g/m*3 4.4 C 0 km/h
373 24-11-2013 09:30:00 4.4 C 5.75 g/m*3 4.4 C 3.2 km/h
374 24-11-2013 09:35:00 4.2 C 5.73 g/m*3 4.2 C 1.6 km/h
375 24-11-2013 09:40:00 4.2 C 5.8 g/m*3 4.2 C 1.6 km/h
Sensor: Nr:Datum:Temp:Abs-Feuchte:Windchill:Wind:
Aussen-T/F 376 24-11-2013 09:45:00 4.4 C 5.88 g/m*3 4.4 C 3.2 km/h
377 24-11-2013 09:50:00 4.6 C 5.89 g/m*3 4.6 C 0 km/h
378 24-11-2013 09:55:00 4.7 C 5.93 g/m*3 4.7 C 3.2 km/h
379 24-11-2013 10:00:00 4.8 C 5.83 g/m*3 4.8 C 3.2 km/h
380 24-11-2013 10:05:00 5.1 C 5.95 g/m*3 5.1 C 3.2 km/h
381 24-11-2013 10:10:00 5.2 C 5.92 g/m*3 5.2 C 0 km/h
382 24-11-2013 10:15:00 5.2 C 5.92 g/m*3 5.2 C 3.2 km/h
383 24-11-2013 10:20:00 5.2 C 5.92 g/m*3 5.2 C 3.2 km/h
384 24-11-2013 10:25:00 5.4 C 6 g/m*3 5.4 C 1.6 km/h
385 24-11-2013 10:30:00 5.5 C 5.97 g/m*3 5.5 C 4.8 km/h
386 24-11-2013 10:35:00 5.5 C 5.97 g/m*3 5.5 C 4.8 km/h
387 24-11-2013 10:40:00 5.6 C 6.01 g/m*3 5.6 C 3.2 km/h
388 24-11-2013 10:45:00 5.6 C 5.94 g/m*3 5.6 C 3.2 km/h
389 24-11-2013 10:50:00 5.7 C 6.05 g/m*3 5.7 C 3.2 km/h
390 24-11-2013 10:55:00 5.7 C 5.98 g/m*3 5.7 C 1.6 km/h
391 24-11-2013 11:00:00 5.7 C 5.98 g/m*3 3.93 C 8.1 km/h
392 24-11-2013 11:05:00 5.6 C 6.01 g/m*3 4.29 C 6.4 km/h
393 24-11-2013 11:10:00 5.6 C 6.01 g/m*3 3.44 C 9.7 km/h
394 24-11-2013 11:15:00 5.5 C 5.97 g/m*3 4.17 C 6.4 km/h
395 24-11-2013 11:20:00 5.5 C 5.97 g/m*3 4.17 C 6.4 km/h
396 24-11-2013 11:25:00 5.5 C 6.04 g/m*3 4.17 C 6.4 km/h
397 24-11-2013 11:30:00 5.5 C 6.04 g/m*3 3.32 C 9.7 km/h
398 24-11-2013 11:35:00 5.6 C 6.08 g/m*3 3.44 C 9.7 km/h
399 24-11-2013 11:40:00 5.6 C 6.15 g/m*3 5.6 C 4.8 km/h
400 24-11-2013 11:45:00 5.6 C 6.22 g/m*3 2.83 C 12.9 km/h
Sensor: Nr:Datum:Temp:Abs-Feuchte:Windchill:Wind:
Aussen-T/F 401 24-11-2013 11:50:00 5.5 C 6.18 g/m*3 3.7 C 8.1 km/h
402 24-11-2013 11:55:00 5.4 C 6.21 g/m*3 3.58 C 8.1 km/h
403 24-11-2013 12:00:00 5.3 C 6.17 g/m*3 3.08 C 9.7 km/h
404 24-11-2013 12:05:00 5.2 C 6.2 g/m*3 2.96 C 9.7 km/h
405 24-11-2013 12:10:00 5 C 6.05 g/m*3 3.59 C 6.4 km/h
406 24-11-2013 12:15:00 4.9 C 6.01 g/m*3 2.99 C 8.1 km/h
407 24-11-2013 12:20:00 4.8 C 5.97 g/m*3 2.15 C 11.3 km/h
408 24-11-2013 12:25:00 4.8 C 6.04 g/m*3 2.49 C 9.7 km/h
409 24-11-2013 12:30:00 4.8 C 6.1 g/m*3 3.36 C 6.4 km/h
410 24-11-2013 12:35:00 4.8 C 6.1 g/m*3 4.8 C 3.2 km/h
411 24-11-2013 12:40:00 4.9 C 6.14 g/m*3 3.48 C 6.4 km/h
412 24-11-2013 12:45:00 4.9 C 6.14 g/m*3 2.61 C 9.7 km/h
413 24-11-2013 12:50:00 4.9 C 6.14 g/m*3 3.48 C 6.4 km/h
414 24-11-2013 12:55:00 5 C 6.18 g/m*3 3.11 C 8.1 km/h
415 24-11-2013 13:00:00 5.1 C 6.22 g/m*3 3.71 C 6.4 km/h
416 24-11-2013 13:05:00 5.1 C 6.22 g/m*3 2.84 C 9.7 km/h
417 24-11-2013 13:10:00 5.1 C 6.22 g/m*3 3.23 C 8.1 km/h
418 24-11-2013 13:15:00 5.1 C 6.22 g/m*3 3.71 C 6.4 km/h
419 24-11-2013 13:20:00 5.1 C 6.29 g/m*3 3.71 C 6.4 km/h
420 24-11-2013 13:25:00 5.2 C 6.27 g/m*3 5.2 C 3.2 km/h
421 24-11-2013 13:30:00 5.2 C 6.27 g/m*3 3.82 C 6.4 km/h
422 24-11-2013 13:35:00 5.2 C 6.27 g/m*3 5.2 C 4.8 km/h
423 24-11-2013 13:40:00 5.2 C 6.27 g/m*3 5.2 C 3.2 km/h
424 24-11-2013 13:45:00 5.3 C 6.31 g/m*3 3.94 C 6.4 km/h
425 24-11-2013 13:50:00 5.3 C 6.31 g/m*3 5.3 C 4.8 km/h
Sensor: Nr:Datum:Temp:Abs-Feuchte:Windchill:Wind:
Aussen-T/F 426 24-11-2013 13:55:00 5.3 C 6.31 g/m*3 5.3 C 3.2 km/h
427 24-11-2013 14:00:00 5.4 C 6.28 g/m*3 5.4 C 4.8 km/h
428 24-11-2013 14:05:00 5.4 C 6.28 g/m*3 4.06 C 6.4 km/h
429 24-11-2013 14:10:00 5.4 C 6.35 g/m*3 4.06 C 6.4 km/h
430 24-11-2013 14:15:00 5.4 C 6.35 g/m*3 4.06 C 6.4 km/h
431 24-11-2013 14:20:00 5.4 C 6.35 g/m*3 4.06 C 6.4 km/h
432 24-11-2013 14:25:00 5.4 C 6.35 g/m*3 4.06 C 6.4 km/h
433 24-11-2013 14:30:00 5.4 C 6.35 g/m*3 5.4 C 4.8 km/h
434 24-11-2013 14:35:00 5.4 C 6.35 g/m*3 4.06 C 6.4 km/h
435 24-11-2013 14:40:00 5.4 C 6.35 g/m*3 5.4 C 3.2 km/h
436 24-11-2013 14:45:00 5.4 C 6.42 g/m*3 5.4 C 4.8 km/h
437 24-11-2013 14:50:00 5.4 C 6.42 g/m*3 5.4 C 3.2 km/h
438 24-11-2013 14:55:00 5.4 C 6.42 g/m*3 5.4 C 4.8 km/h
439 24-11-2013 15:00:00 5.4 C 6.42 g/m*3 5.4 C 1.6 km/h
440 24-11-2013 15:05:00 5.5 C 6.46 g/m*3 3.32 C 9.7 km/h
441 24-11-2013 15:10:00 5.5 C 6.46 g/m*3 3.7 C 8.1 km/h
442 24-11-2013 15:15:00 5.5 C 6.46 g/m*3 3.7 C 8.1 km/h
443 24-11-2013 15:20:00 5.5 C 6.46 g/m*3 5.5 C 3.2 km/h
444 24-11-2013 15:25:00 5.6 C 6.5 g/m*3 4.29 C 6.4 km/h
445 24-11-2013 15:30:00 5.6 C 6.5 g/m*3 3.11 C 11.3 km/h
446 24-11-2013 15:35:00 5.6 C 6.5 g/m*3 5.6 C 4.8 km/h
447 24-11-2013 15:40:00 5.6 C 6.5 g/m*3 5.6 C 4.8 km/h
448 24-11-2013 15:45:00 5.6 C 6.5 g/m*3 4.29 C 6.4 km/h
449 24-11-2013 15:50:00 5.7 C 6.55 g/m*3 5.7 C 4.8 km/h
450 24-11-2013 15:55:00 5.7 C 6.55 g/m*3 4.4 C 6.4 km/h
Sensor: Nr:Datum:Temp:Abs-Feuchte:Windchill:Wind:
Aussen-T/F 451 24-11-2013 16:00:00 5.7 C 6.62 g/m*3 5.7 C 3.2 km/h
452 24-11-2013 16:05:00 5.7 C 6.55 g/m*3 5.7 C 4.8 km/h
453 24-11-2013 16:10:00 5.7 C 6.55 g/m*3 5.7 C 4.8 km/h
454 24-11-2013 16:15:00 5.8 C 6.59 g/m*3 5.8 C 4.8 km/h
455 24-11-2013 16:20:00 5.8 C 6.59 g/m*3 4.52 C 6.4 km/h
456 24-11-2013 16:25:00 5.8 C 6.59 g/m*3 5.8 C 4.8 km/h
457 24-11-2013 16:30:00 5.8 C 6.59 g/m*3 5.8 C 3.2 km/h
458 24-11-2013 16:35:00 5.8 C 6.59 g/m*3 4.05 C 8.1 km/h
459 24-11-2013 16:40:00 5.8 C 6.59 g/m*3 5.8 C 4.8 km/h
460 24-11-2013 16:45:00 5.9 C 6.63 g/m*3 5.9 C 1.6 km/h
461 24-11-2013 16:50:00 5.9 C 6.63 g/m*3 5.9 C 3.2 km/h
462 24-11-2013 16:55:00 5.9 C 6.63 g/m*3 5.9 C 3.2 km/h
463 24-11-2013 17:00:00 5.9 C 6.56 g/m*3 5.9 C 3.2 km/h
464 24-11-2013 17:05:00 6 C 6.6 g/m*3 4.75 C 6.4 km/h
465 24-11-2013 17:10:00 6.1 C 6.65 g/m*3 4.4 C 8.1 km/h
466 24-11-2013 17:15:00 6.1 C 6.58 g/m*3 6.1 C 3.2 km/h
467 24-11-2013 17:20:00 6.1 C 6.58 g/m*3 4.86 C 6.4 km/h
468 24-11-2013 17:25:00 6.2 C 6.62 g/m*3 6.2 C 3.2 km/h
469 24-11-2013 17:30:00 6.2 C 6.55 g/m*3 4.15 C 9.7 km/h
470 24-11-2013 17:35:00 6.2 C 6.55 g/m*3 4.52 C 8.1 km/h
471 24-11-2013 17:40:00 6.2 C 6.55 g/m*3 4.15 C 9.7 km/h
472 24-11-2013 17:45:00 6.1 C 6.28 g/m*3 4.4 C 8.1 km/h
473 24-11-2013 17:50:00 6.1 C 6.28 g/m*3 4.86 C 6.4 km/h
474 24-11-2013 17:55:00 6.1 C 6.21 g/m*3 4.04 C 9.7 km/h
475 24-11-2013 18:00:00 6.1 C 6.21 g/m*3 4.4 C 8.1 km/h
Sensor: Nr:Datum:Temp:Abs-Feuchte:Windchill:Wind:
Aussen-T/F 476 24-11-2013 18:05:00 6.1 C 6.21 g/m*3 4.4 C 8.1 km/h
477 24-11-2013 18:10:00 6.1 C 6.06 g/m*3 2.73 C 17.7 km/h
478 24-11-2013 18:15:00 6.1 C 6.06 g/m*3 3.43 C 12.9 km/h
479 24-11-2013 18:20:00 6.1 C 5.99 g/m*3 3.43 C 12.9 km/h
480 24-11-2013 18:25:00 6.2 C 5.96 g/m*3 4.15 C 9.7 km/h
481 24-11-2013 18:30:00 6.2 C 5.88 g/m*3 4.52 C 8.1 km/h
482 24-11-2013 18:35:00 6.1 C 5.84 g/m*3 4.04 C 9.7 km/h
483 24-11-2013 18:40:00 6.1 C 5.84 g/m*3 4.86 C 6.4 km/h
484 24-11-2013 18:45:00 6.1 C 5.84 g/m*3 4.4 C 8.1 km/h
485 24-11-2013 19:25:00 5.7 C 5.05 g/m*3 4.4 C 6.4 km/h
486 24-11-2013 19:30:00 5.7 C 5.05 g/m*3 5.7 C 4.8 km/h
487 24-11-2013 19:35:00 5.6 C 4.95 g/m*3 5.6 C 4.8 km/h
488 24-11-2013 19:40:00 5.6 C 4.95 g/m*3 4.29 C 6.4 km/h
489 24-11-2013 19:45:00 5.6 C 4.95 g/m*3 4.29 C 6.4 km/h
490 24-11-2013 19:50:00 5.5 C 4.92 g/m*3 5.5 C 1.6 km/h
491 24-11-2013 19:55:00 5.5 C 4.92 g/m*3 5.5 C 3.2 km/h
492 24-11-2013 20:00:00 5.5 C 4.92 g/m*3 5.5 C 1.6 km/h
493 25-11-2013 09:45:00 0.4 C 4.98 g/m*3 -1.72 C 6.4 km/h
494 25-11-2013 09:50:00 0.6 C 5.05 g/m*3 -2.52 C 9.7 km/h
495 25-11-2013 09:55:00 0.6 C 4.7 g/m*3 0.6 C 4.8 km/h
496 25-11-2013 10:00:00 0.7 C 4.73 g/m*3 0.7 C 1.6 km/h
497 25-11-2013 10:05:00 0.8 C 4.76 g/m*3 0.8 C 3.2 km/h
498 25-11-2013 10:10:00 0.8 C 4.76 g/m*3 -1.26 C 6.4 km/h
499 25-11-2013 10:15:00 0.8 C 4.71 g/m*3 -1.83 C 8.1 km/h
500 25-11-2013 10:20:00 0.9 C 4.74 g/m*3 -1.14 C 6.4 km/h
Sensor: Nr:Datum:Temp:Abs-Feuchte:Windchill:Wind:
Aussen-T/F 501 25-11-2013 10:25:00 0.9 C 4.74 g/m*3 -1.14 C 6.4 km/h
502 25-11-2013 10:30:00 0.9 C 4.74 g/m*3 -1.71 C 8.1 km/h
503 25-11-2013 10:35:00 0.9 C 4.74 g/m*3 -1.71 C 8.1 km/h
504 25-11-2013 10:40:00 1 C 4.78 g/m*3 1 C 4.8 km/h
505 25-11-2013 10:45:00 1.1 C 4.81 g/m*3 -1.48 C 8.1 km/h
506 25-11-2013 10:50:00 1.1 C 4.81 g/m*3 -0.91 C 6.4 km/h
507 25-11-2013 10:55:00 1.1 C 4.81 g/m*3 -1.48 C 8.1 km/h
508 25-11-2013 11:00:00 1.2 C 4.79 g/m*3 -0.8 C 6.4 km/h
509 25-11-2013 11:05:00 1.2 C 4.79 g/m*3 -0.8 C 6.4 km/h
510 25-11-2013 11:10:00 1.2 C 4.79 g/m*3 1.2 C 3.2 km/h
511 25-11-2013 11:15:00 1.3 C 4.82 g/m*3 -0.68 C 6.4 km/h
512 25-11-2013 11:20:00 1.3 C 4.82 g/m*3 -0.68 C 6.4 km/h
513 25-11-2013 11:25:00 1.3 C 4.82 g/m*3 -0.68 C 6.4 km/h
514 25-11-2013 11:30:00 1.4 C 4.85 g/m*3 -1.12 C 8.1 km/h
515 25-11-2013 11:35:00 1.4 C 4.85 g/m*3 -1.95 C 11.3 km/h
516 25-11-2013 11:40:00 1.6 C 4.87 g/m*3 -1.71 C 11.3 km/h
517 25-11-2013 11:45:00 1.6 C 4.87 g/m*3 -0.89 C 8.1 km/h
518 25-11-2013 11:50:00 1.7 C 4.9 g/m*3 -0.77 C 8.1 km/h
519 25-11-2013 11:55:00 1.8 C 4.93 g/m*3 -0.1 C 6.4 km/h
520 25-11-2013 12:00:00 1.8 C 4.93 g/m*3 -0.1 C 6.4 km/h
521 25-11-2013 12:05:00 1.9 C 4.97 g/m*3 1.9 C 4.8 km/h
522 25-11-2013 12:10:00 1.9 C 4.97 g/m*3 0.01 C 6.4 km/h
523 25-11-2013 12:15:00 2 C 5 g/m*3 -0.42 C 8.1 km/h
524 25-11-2013 12:20:00 2 C 5.06 g/m*3 -0.42 C 8.1 km/h
525 25-11-2013 12:25:00 2.1 C 5.09 g/m*3 2.1 C 4.8 km/h
Sensor: Nr:Datum:Temp:Abs-Feuchte:Windchill:Wind:
Aussen-T/F 526 25-11-2013 12:30:00 2.2 C 5.13 g/m*3 0.36 C 6.4 km/h
527 25-11-2013 12:35:00 2.2 C 5.07 g/m*3 -0.18 C 8.1 km/h
528 25-11-2013 12:40:00 2.3 C 5.1 g/m*3 0.47 C 6.4 km/h
529 25-11-2013 12:45:00 2.3 C 5.1 g/m*3 0.47 C 6.4 km/h
530 25-11-2013 12:50:00 2.3 C 5.1 g/m*3 2.3 C 3.2 km/h
531 25-11-2013 12:55:00 2.3 C 5.1 g/m*3 2.3 C 3.2 km/h
532 25-11-2013 13:00:00 2.4 C 5.14 g/m*3 0.05 C 8.1 km/h
533 25-11-2013 13:05:00 2.4 C 5.14 g/m*3 0.05 C 8.1 km/h
534 25-11-2013 13:10:00 2.4 C 5.2 g/m*3 2.4 C 1.6 km/h
535 25-11-2013 13:15:00 2.4 C 5.2 g/m*3 2.4 C 1.6 km/h
536 25-11-2013 13:20:00 2.4 C 5.2 g/m*3 0.59 C 6.4 km/h
537 25-11-2013 13:25:00 2.4 C 5.2 g/m*3 2.4 C 4.8 km/h
538 25-11-2013 13:30:00 2.5 C 5.23 g/m*3 0.71 C 6.4 km/h
539 25-11-2013 13:35:00 2.5 C 5.23 g/m*3 2.5 C 4.8 km/h
540 25-11-2013 13:40:00 2.6 C 5.27 g/m*3 2.6 C 1.6 km/h
541 25-11-2013 13:45:00 2.7 C 5.3 g/m*3 2.7 C 3.2 km/h
542 25-11-2013 13:50:00 2.7 C 5.3 g/m*3 2.7 C 3.2 km/h
543 25-11-2013 13:55:00 2.8 C 5.34 g/m*3 2.8 C 4.8 km/h
544 25-11-2013 14:00:00 2.8 C 5.34 g/m*3 2.8 C 4.8 km/h
545 25-11-2013 14:05:00 2.8 C 5.34 g/m*3 2.8 C 4.8 km/h
546 25-11-2013 14:10:00 2.8 C 5.34 g/m*3 2.8 C 1.6 km/h
547 25-11-2013 14:15:00 2.8 C 5.34 g/m*3 2.8 C 1.6 km/h
548 25-11-2013 14:20:00 2.8 C 5.34 g/m*3 2.8 C 0 km/h
549 25-11-2013 14:25:00 2.9 C 5.37 g/m*3 2.9 C 3.2 km/h
550 25-11-2013 14:30:00 2.9 C 5.43 g/m*3 2.9 C 1.6 km/h
Sensor: Nr:Datum:Temp:Abs-Feuchte:Windchill:Wind:
Aussen-T/F 551 25-11-2013 14:35:00 3 C 5.47 g/m*3 3 C 3.2 km/h
552 25-11-2013 14:40:00 3.1 C 5.51 g/m*3 3.1 C 1.6 km/h
553 25-11-2013 14:45:00 3.1 C 5.51 g/m*3 3.1 C 0 km/h
554 25-11-2013 14:50:00 3.1 C 5.57 g/m*3 3.1 C 3.2 km/h
555 25-11-2013 14:55:00 3.1 C 5.51 g/m*3 3.1 C 3.2 km/h
556 25-11-2013 15:00:00 3.1 C 5.51 g/m*3 3.1 C 0 km/h
557 25-11-2013 15:05:00 3.1 C 5.57 g/m*3 3.1 C 4.8 km/h
558 25-11-2013 15:10:00 3 C 5.53 g/m*3 3 C 3.2 km/h
559 25-11-2013 15:15:00 3.1 C 5.57 g/m*3 3.1 C 1.6 km/h
560 25-11-2013 15:20:00 3.1 C 5.57 g/m*3 3.1 C 3.2 km/h
561 25-11-2013 15:25:00 3.2 C 5.66 g/m*3 3.2 C 3.2 km/h
562 25-11-2013 15:30:00 3.2 C 5.66 g/m*3 3.2 C 4.8 km/h
563 25-11-2013 15:35:00 3.2 C 5.66 g/m*3 3.2 C 4.8 km/h
564 25-11-2013 15:40:00 3.2 C 5.66 g/m*3 3.2 C 1.6 km/h
565 25-11-2013 15:45:00 3.2 C 5.66 g/m*3 3.2 C 3.2 km/h
566 25-11-2013 15:50:00 3.2 C 5.66 g/m*3 3.2 C 0 km/h
567 25-11-2013 15:55:00 3.2 C 5.66 g/m*3 3.2 C 1.6 km/h
568 25-11-2013 16:00:00 3.2 C 5.66 g/m*3 3.2 C 0 km/h
569 25-11-2013 16:05:00 3.2 C 5.66 g/m*3 3.2 C 0 km/h
570 25-11-2013 16:10:00 3.3 C 5.7 g/m*3 3.3 C 0 km/h
571 25-11-2013 16:15:00 3.3 C 5.7 g/m*3 3.3 C 1.6 km/h
572 25-11-2013 16:20:00 3.3 C 5.7 g/m*3 3.3 C 3.2 km/h
573 25-11-2013 16:25:00 3.6 C 5.88 g/m*3 3.6 C 1.6 km/h
574 25-11-2013 16:30:00 3.7 C 5.92 g/m*3 3.7 C 0 km/h
575 25-11-2013 16:35:00 3.8 C 6.02 g/m*3 3.8 C 1.6 km/h
Sensor: Nr:Datum:Temp:Abs-Feuchte:Windchill:Wind:
Aussen-T/F 576 25-11-2013 16:40:00 3.9 C 6 g/m*3 3.9 C 3.2 km/h
577 25-11-2013 16:45:00 4 C 6.04 g/m*3 4 C 1.6 km/h
578 25-11-2013 16:50:00 4.1 C 6.08 g/m*3 4.1 C 3.2 km/h
579 25-11-2013 16:55:00 4.1 C 6.08 g/m*3 4.1 C 0 km/h
580 25-11-2013 17:00:00 4.1 C 6.08 g/m*3 4.1 C 1.6 km/h
581 25-11-2013 17:05:00 4.1 C 6.08 g/m*3 4.1 C 1.6 km/h
582 25-11-2013 17:10:00 4.1 C 6.08 g/m*3 4.1 C 1.6 km/h
583 25-11-2013 17:15:00 4.1 C 6.08 g/m*3 4.1 C 1.6 km/h
584 25-11-2013 17:20:00 4.1 C 6.08 g/m*3 4.1 C 4.8 km/h
585 25-11-2013 17:25:00 4.1 C 6.08 g/m*3 4.1 C 0 km/h
586 25-11-2013 17:30:00 4.1 C 6.08 g/m*3 4.1 C 0 km/h
587 25-11-2013 17:35:00 4.1 C 6.08 g/m*3 4.1 C 0 km/h
588 25-11-2013 17:40:00 4.1 C 6.08 g/m*3 4.1 C 0 km/h
589 25-11-2013 17:45:00 4.1 C 6.08 g/m*3 4.1 C 1.6 km/h
590 25-11-2013 17:50:00 4.1 C 6.08 g/m*3 4.1 C 1.6 km/h
591 25-11-2013 17:55:00 4.1 C 6.08 g/m*3 4.1 C 1.6 km/h
592 25-11-2013 18:00:00 4.1 C 6.08 g/m*3 4.1 C 0 km/h
593 25-11-2013 18:05:00 4.1 C 6.08 g/m*3 4.1 C 0 km/h
594 25-11-2013 18:10:00 4 C 6.04 g/m*3 4 C 0 km/h
595 25-11-2013 18:15:00 4.1 C 6.14 g/m*3 4.1 C 0 km/h
596 25-11-2013 18:20:00 4.1 C 6.14 g/m*3 4.1 C 0 km/h
597 25-11-2013 18:25:00 4.1 C 6.14 g/m*3 4.1 C 0 km/h
598 25-11-2013 18:30:00 4.1 C 6.14 g/m*3 4.1 C 0 km/h
599 25-11-2013 18:35:00 4.1 C 6.14 g/m*3 4.1 C 0 km/h
600 25-11-2013 18:40:00 4.1 C 6.14 g/m*3 2.55 C 6.4 km/h
Sensor: Nr:Datum:Temp:Abs-Feuchte:Windchill:Wind:
Aussen-T/F 601 25-11-2013 18:45:00 4.1 C 6.08 g/m*3 2.05 C 8.1 km/h
602 25-11-2013 18:50:00 4.1 C 6.08 g/m*3 4.1 C 3.2 km/h
603 25-11-2013 18:55:00 3.9 C 6 g/m*3 3.9 C 3.2 km/h
604 25-11-2013 19:00:00 3.8 C 5.9 g/m*3 3.8 C 0 km/h
605 25-11-2013 19:05:00 3.8 C 5.9 g/m*3 3.8 C 0 km/h
606 25-11-2013 19:10:00 3.7 C 5.92 g/m*3 3.7 C 0 km/h
607 25-11-2013 19:15:00 3.7 C 5.92 g/m*3 3.7 C 1.6 km/h
608 25-11-2013 19:20:00 3.6 C 5.88 g/m*3 3.6 C 1.6 km/h
609 25-11-2013 19:25:00 3.5 C 5.84 g/m*3 3.5 C 0 km/h
610 25-11-2013 19:30:00 3.4 C 5.8 g/m*3 3.4 C 0 km/h
611 25-11-2013 19:35:00 3.4 C 5.8 g/m*3 3.4 C 0 km/h
612 25-11-2013 19:40:00 3.4 C 5.8 g/m*3 3.4 C 3.2 km/h
613 25-11-2013 19:45:00 3.4 C 5.86 g/m*3 3.4 C 0 km/h
614 25-11-2013 19:50:00 3.4 C 5.86 g/m*3 3.4 C 0 km/h
615 25-11-2013 19:55:00 3.4 C 5.86 g/m*3 3.4 C 0 km/h
616 25-11-2013 20:00:00 3.4 C 5.86 g/m*3 3.4 C 0 km/h
617 25-11-2013 20:05:00 3.5 C 5.9 g/m*3 3.5 C 0 km/h
618 25-11-2013 20:10:00 3.4 C 5.86 g/m*3 3.4 C 3.2 km/h
619 25-11-2013 20:15:00 3.5 C 5.9 g/m*3 3.5 C 1.6 km/h
620 25-11-2013 20:20:00 3.5 C 5.9 g/m*3 3.5 C 0 km/h
621 25-11-2013 20:25:00 3.5 C 5.9 g/m*3 3.5 C 0 km/h
622 25-11-2013 20:30:00 3.5 C 5.9 g/m*3 3.5 C 3.2 km/h
623 25-11-2013 20:35:00 3.5 C 5.9 g/m*3 3.5 C 4.8 km/h
624 25-11-2013 20:40:00 3.5 C 5.9 g/m*3 3.5 C 4.8 km/h
625 25-11-2013 20:45:00 3.5 C 5.9 g/m*3 1.86 C 6.4 km/h
Sensor: Nr:Datum:Temp:Abs-Feuchte:Windchill:Wind:
Aussen-T/F 626 25-11-2013 20:50:00 3.4 C 5.86 g/m*3 1.23 C 8.1 km/h
627 25-11-2013 20:55:00 3.4 C 5.8 g/m*3 1.23 C 8.1 km/h
628 25-11-2013 21:00:00 3.4 C 5.8 g/m*3 1.75 C 6.4 km/h
629 25-11-2013 21:05:00 3.3 C 5.76 g/m*3 3.3 C 3.2 km/h
630 25-11-2013 21:10:00 3.3 C 5.7 g/m*3 1.11 C 8.1 km/h
631 25-11-2013 21:15:00 3.3 C 5.7 g/m*3 1.63 C 6.4 km/h
632 25-11-2013 21:20:00 3.2 C 5.66 g/m*3 3.2 C 1.6 km/h
633 25-11-2013 21:25:00 3.2 C 5.6 g/m*3 3.2 C 3.2 km/h
634 25-11-2013 21:30:00 3.1 C 5.57 g/m*3 3.1 C 4.8 km/h
635 25-11-2013 21:35:00 3 C 5.53 g/m*3 1.28 C 6.4 km/h
636 25-11-2013 21:40:00 2.9 C 5.49 g/m*3 1.17 C 6.4 km/h
637 25-11-2013 21:45:00 2.9 C 5.43 g/m*3 1.17 C 6.4 km/h
638 25-11-2013 21:50:00 2.8 C 5.4 g/m*3 1.05 C 6.4 km/h
639 25-11-2013 21:55:00 2.8 C 5.4 g/m*3 1.05 C 6.4 km/h
640 25-11-2013 22:00:00 2.8 C 5.34 g/m*3 1.05 C 6.4 km/h
641 25-11-2013 22:05:00 2.7 C 5.3 g/m*3 2.7 C 0 km/h
642 25-11-2013 22:10:00 2.7 C 5.3 g/m*3 2.7 C 1.6 km/h
643 25-11-2013 22:15:00 2.6 C 5.32 g/m*3 2.6 C 3.2 km/h
644 25-11-2013 22:20:00 2.5 C 5.29 g/m*3 2.5 C 3.2 km/h
645 25-11-2013 22:25:00 2.4 C 5.25 g/m*3 2.4 C 1.6 km/h
646 25-11-2013 22:30:00 2.3 C 5.22 g/m*3 2.3 C 1.6 km/h
647 25-11-2013 22:35:00 2.1 C 5.15 g/m*3 2.1 C 3.2 km/h
648 25-11-2013 22:40:00 1.8 C 5.04 g/m*3 1.8 C 3.2 km/h
649 25-11-2013 22:45:00 1.5 C 4.99 g/m*3 1.5 C 3.2 km/h
650 25-11-2013 22:50:00 1.3 C 4.93 g/m*3 1.3 C 1.6 km/h
Sensor: Nr:Datum:Temp:Abs-Feuchte:Windchill:Wind:
Aussen-T/F 651 25-11-2013 22:55:00 1.1 C 4.91 g/m*3 1.1 C 3.2 km/h
652 25-11-2013 23:00:00 0.9 C 4.85 g/m*3 0.9 C 3.2 km/h
653 25-11-2013 23:05:00 0.8 C 4.81 g/m*3 0.8 C 4.8 km/h
654 25-11-2013 23:10:00 0.7 C 4.78 g/m*3 0.7 C 4.8 km/h
655 25-11-2013 23:15:00 0.7 C 4.83 g/m*3 0.7 C 3.2 km/h
656 25-11-2013 23:20:00 0.6 C 4.8 g/m*3 0.6 C 3.2 km/h
657 25-11-2013 23:25:00 0.6 C 4.8 g/m*3 0.6 C 4.8 km/h
658 25-11-2013 23:30:00 0.5 C 4.76 g/m*3 0.5 C 4.8 km/h
659 25-11-2013 23:35:00 0.5 C 4.76 g/m*3 0.5 C 4.8 km/h
660 25-11-2013 23:40:00 0.5 C 4.76 g/m*3 0.5 C 3.2 km/h
661 25-11-2013 23:45:00 0.5 C 4.76 g/m*3 0.5 C 3.2 km/h
662 25-11-2013 23:50:00 0.4 C 4.73 g/m*3 0.4 C 3.2 km/h
663 25-11-2013 23:55:00 0.4 C 4.73 g/m*3 0.4 C 4.8 km/h
664 26-11-2013 00:00:00 0.4 C 4.73 g/m*3 0.4 C 3.2 km/h
665 26-11-2013 00:05:00 0.4 C 4.73 g/m*3 0.4 C 3.2 km/h
666 26-11-2013 00:10:00 0.4 C 4.73 g/m*3 0.4 C 1.6 km/h
667 26-11-2013 00:15:00 0.4 C 4.73 g/m*3 0.4 C 3.2 km/h
668 26-11-2013 00:20:00 0.4 C 4.73 g/m*3 0.4 C 0 km/h
669 26-11-2013 00:25:00 0.5 C 4.76 g/m*3 0.5 C 1.6 km/h
670 26-11-2013 00:30:00 0.6 C 4.85 g/m*3 0.6 C 0 km/h
671 26-11-2013 00:35:00 0.6 C 4.85 g/m*3 0.6 C 3.2 km/h
672 26-11-2013 00:40:00 0.6 C 4.85 g/m*3 0.6 C 1.6 km/h
673 26-11-2013 00:45:00 0.7 C 4.88 g/m*3 0.7 C 1.6 km/h
674 26-11-2013 00:50:00 0.6 C 4.85 g/m*3 0.6 C 0 km/h
675 26-11-2013 00:55:00 0.6 C 4.85 g/m*3 0.6 C 3.2 km/h
Sensor: Nr:Datum:Temp:Abs-Feuchte:Windchill:Wind:
Aussen-T/F 676 26-11-2013 01:00:00 0.6 C 4.85 g/m*3 0.6 C 3.2 km/h
677 26-11-2013 01:05:00 0.6 C 4.8 g/m*3 0.6 C 3.2 km/h
678 26-11-2013 01:10:00 0.5 C 4.76 g/m*3 0.5 C 4.8 km/h
679 26-11-2013 01:15:00 0.4 C 4.73 g/m*3 0.4 C 1.6 km/h
680 26-11-2013 01:20:00 0.3 C 4.7 g/m*3 0.3 C 1.6 km/h
681 26-11-2013 01:25:00 0.3 C 4.7 g/m*3 0.3 C 1.6 km/h
682 26-11-2013 01:30:00 0.2 C 4.67 g/m*3 0.2 C 3.2 km/h
683 26-11-2013 01:35:00 0.1 C 4.63 g/m*3 0.1 C 1.6 km/h
684 26-11-2013 01:40:00 0.1 C 4.63 g/m*3 0.1 C 3.2 km/h
685 26-11-2013 01:45:00 0 C 4.6 g/m*3 0 C 3.2 km/h
686 26-11-2013 01:50:00 0 C 4.65 g/m*3 0 C 3.2 km/h
687 26-11-2013 01:55:00 -0.1 C 4.62 g/m*3 -0.1 C 3.2 km/h
688 26-11-2013 02:00:00 -0.1 C 4.62 g/m*3 -0.1 C 1.6 km/h
689 26-11-2013 02:05:00 0 C 4.65 g/m*3 0 C 4.8 km/h
690 26-11-2013 02:10:00 -0.1 C 4.62 g/m*3 -0.1 C 0 km/h
691 26-11-2013 02:15:00 -0.1 C 4.62 g/m*3 -0.1 C 4.8 km/h
692 26-11-2013 02:20:00 0.1 C 4.68 g/m*3 0.1 C 0 km/h
693 26-11-2013 02:25:00 0.1 C 4.68 g/m*3 0.1 C 3.2 km/h
694 26-11-2013 02:30:00 0.1 C 4.68 g/m*3 0.1 C 1.6 km/h
695 26-11-2013 02:35:00 -0.1 C 4.62 g/m*3 -0.1 C 3.2 km/h
696 26-11-2013 02:40:00 -0.1 C 4.62 g/m*3 -0.1 C 1.6 km/h
697 26-11-2013 02:45:00 -0.1 C 4.62 g/m*3 -0.1 C 3.2 km/h
698 26-11-2013 02:50:00 -0.1 C 4.62 g/m*3 -0.1 C 1.6 km/h
699 26-11-2013 02:55:00 -0.1 C 4.62 g/m*3 -0.1 C 1.6 km/h
700 26-11-2013 03:00:00 0.1 C 4.68 g/m*3 0.1 C 3.2 km/h
Sensor: Nr:Datum:Temp:Abs-Feuchte:Windchill:Wind:
Aussen-T/F 701 26-11-2013 03:05:00 0.1 C 4.68 g/m*3 0.1 C 1.6 km/h
702 26-11-2013 03:10:00 0.1 C 4.68 g/m*3 0.1 C 1.6 km/h
703 26-11-2013 03:15:00 0 C 4.65 g/m*3 0 C 1.6 km/h
704 26-11-2013 03:20:00 -0.1 C 4.57 g/m*3 -0.1 C 4.8 km/h
705 26-11-2013 03:25:00 -0.2 C 4.54 g/m*3 -0.2 C 3.2 km/h
706 26-11-2013 03:30:00 -0.2 C 4.54 g/m*3 -0.2 C 3.2 km/h
707 26-11-2013 03:35:00 -0.3 C 4.51 g/m*3 -0.3 C 3.2 km/h
708 26-11-2013 03:40:00 -0.3 C 4.51 g/m*3 -0.3 C 3.2 km/h
709 26-11-2013 03:45:00 -0.3 C 4.56 g/m*3 -0.3 C 3.2 km/h
710 26-11-2013 03:50:00 -0.3 C 4.56 g/m*3 -0.3 C 1.6 km/h
711 26-11-2013 03:55:00 -0.3 C 4.56 g/m*3 -0.3 C 3.2 km/h
712 26-11-2013 04:00:00 -0.3 C 4.56 g/m*3 -0.3 C 3.2 km/h
713 26-11-2013 04:05:00 -0.3 C 4.56 g/m*3 -0.3 C 3.2 km/h
714 26-11-2013 04:10:00 -0.4 C 4.52 g/m*3 -0.4 C 0 km/h
715 26-11-2013 04:15:00 -0.5 C 4.45 g/m*3 -0.5 C 0 km/h
716 26-11-2013 04:20:00 -0.6 C 4.46 g/m*3 -0.6 C 3.2 km/h
717 26-11-2013 04:25:00 -0.6 C 4.46 g/m*3 -0.6 C 0 km/h
718 26-11-2013 04:30:00 -0.6 C 4.46 g/m*3 -0.6 C 3.2 km/h
719 26-11-2013 04:35:00 -0.5 C 4.49 g/m*3 -0.5 C 3.2 km/h
720 26-11-2013 04:40:00 -0.4 C 4.52 g/m*3 -0.4 C 3.2 km/h
721 26-11-2013 04:45:00 -0.4 C 4.52 g/m*3 -0.4 C 0 km/h
722 26-11-2013 04:50:00 -0.6 C 4.46 g/m*3 -0.6 C 0 km/h
723 26-11-2013 04:55:00 -0.6 C 4.46 g/m*3 -0.6 C 0 km/h
724 26-11-2013 05:00:00 -0.6 C 4.46 g/m*3 -0.6 C 3.2 km/h
725 26-11-2013 05:05:00 -0.7 C 4.43 g/m*3 -0.7 C 3.2 km/h
Sensor: Nr:Datum:Temp:Abs-Feuchte:Windchill:Wind:
Aussen-T/F 726 26-11-2013 05:10:00 -0.7 C 4.43 g/m*3 -0.7 C 0 km/h
727 26-11-2013 05:15:00 -0.7 C 4.43 g/m*3 -0.7 C 0 km/h
728 26-11-2013 05:20:00 -0.7 C 4.43 g/m*3 -0.7 C 0 km/h
729 26-11-2013 05:25:00 -0.7 C 4.43 g/m*3 -0.7 C 0 km/h
730 26-11-2013 05:30:00 -0.7 C 4.43 g/m*3 -0.7 C 0 km/h
731 26-11-2013 05:35:00 -0.7 C 4.43 g/m*3 -0.7 C 1.6 km/h
732 26-11-2013 05:40:00 -0.8 C 4.4 g/m*3 -0.8 C 0 km/h
733 26-11-2013 05:45:00 -0.7 C 4.43 g/m*3 -0.7 C 0 km/h
734 26-11-2013 05:50:00 -0.7 C 4.43 g/m*3 -0.7 C 0 km/h
735 26-11-2013 05:55:00 -0.7 C 4.43 g/m*3 -0.7 C 0 km/h
736 26-11-2013 06:00:00 -0.7 C 4.43 g/m*3 -0.7 C 0 km/h
737 26-11-2013 06:05:00 -0.7 C 4.43 g/m*3 -0.7 C 0 km/h
738 26-11-2013 06:10:00 -0.7 C 4.43 g/m*3 -0.7 C 0 km/h
739 26-11-2013 06:15:00 -0.7 C 4.43 g/m*3 -0.7 C 0 km/h
740 26-11-2013 06:20:00 -0.7 C 4.43 g/m*3 -0.7 C 3.2 km/h
741 26-11-2013 06:25:00 -0.6 C 4.46 g/m*3 -0.6 C 0 km/h
742 26-11-2013 06:30:00 -0.4 C 4.52 g/m*3 -0.4 C 3.2 km/h
743 26-11-2013 06:35:00 -0.4 C 4.57 g/m*3 -0.4 C 3.2 km/h
744 26-11-2013 06:40:00 -0.3 C 4.6 g/m*3 -0.3 C 1.6 km/h
745 26-11-2013 06:45:00 -0.2 C 4.59 g/m*3 -0.2 C 3.2 km/h
746 26-11-2013 06:50:00 -0.2 C 4.59 g/m*3 -0.2 C 1.6 km/h
747 26-11-2013 06:55:00 -0.1 C 4.62 g/m*3 -0.1 C 3.2 km/h
748 26-11-2013 07:00:00 -0.1 C 4.62 g/m*3 -0.1 C 1.6 km/h
749 26-11-2013 07:05:00 -0.1 C 4.62 g/m*3 -0.1 C 3.2 km/h
750 26-11-2013 07:10:00 -0.1 C 4.62 g/m*3 -0.1 C 3.2 km/h
Sensor: Nr:Datum:Temp:Abs-Feuchte:Windchill:Wind:
Aussen-T/F 751 26-11-2013 07:15:00 -0.1 C 4.62 g/m*3 -0.1 C 0 km/h
752 26-11-2013 07:20:00 0 C 4.65 g/m*3 0 C 1.6 km/h
753 26-11-2013 07:25:00 0 C 4.65 g/m*3 0 C 0 km/h
754 26-11-2013 07:30:00 0.1 C 4.68 g/m*3 0.1 C 0 km/h
755 26-11-2013 07:35:00 0.1 C 4.68 g/m*3 0.1 C 1.6 km/h
756 26-11-2013 07:40:00 0.1 C 4.68 g/m*3 0.1 C 0 km/h
757 26-11-2013 07:45:00 0.1 C 4.68 g/m*3 0.1 C 0 km/h
758 26-11-2013 07:50:00 0.1 C 4.68 g/m*3 0.1 C 1.6 km/h
759 26-11-2013 07:55:00 0.1 C 4.68 g/m*3 0.1 C 4.8 km/h
760 26-11-2013 08:00:00 0.1 C 4.68 g/m*3 0.1 C 4.8 km/h
761 26-11-2013 08:05:00 0.1 C 4.68 g/m*3 0.1 C 3.2 km/h
762 26-11-2013 08:10:00 0.1 C 4.68 g/m*3 0.1 C 3.2 km/h
763 26-11-2013 08:15:00 0.1 C 4.68 g/m*3 0.1 C 3.2 km/h
764 26-11-2013 08:20:00 0.1 C 4.63 g/m*3 0.1 C 4.8 km/h
765 26-11-2013 08:25:00 0.2 C 4.67 g/m*3 0.2 C 4.8 km/h
766 26-11-2013 08:30:00 0.2 C 4.67 g/m*3 0.2 C 4.8 km/h
767 26-11-2013 08:35:00 0.2 C 4.67 g/m*3 0.2 C 4.8 km/h
768 26-11-2013 08:40:00 0.2 C 4.67 g/m*3 0.2 C 1.6 km/h
769 26-11-2013 08:45:00 0.2 C 4.67 g/m*3 0.2 C 1.6 km/h
770 26-11-2013 08:50:00 0.2 C 4.67 g/m*3 0.2 C 4.8 km/h
771 26-11-2013 08:55:00 0.2 C 4.67 g/m*3 0.2 C 3.2 km/h
772 26-11-2013 09:00:00 0.2 C 4.67 g/m*3 0.2 C 0 km/h
773 26-11-2013 09:05:00 0.2 C 4.67 g/m*3 0.2 C 3.2 km/h
774 26-11-2013 09:10:00 0.2 C 4.67 g/m*3 0.2 C 1.6 km/h
775 26-11-2013 09:15:00 0.3 C 4.7 g/m*3 0.3 C 4.8 km/h
Sensor: Nr:Datum:Temp:Abs-Feuchte:Windchill:Wind:
Aussen-T/F 776 26-11-2013 09:20:00 0.3 C 4.7 g/m*3 0.3 C 3.2 km/h
777 26-11-2013 09:25:00 0.2 C 4.67 g/m*3 0.2 C 3.2 km/h
778 26-11-2013 09:30:00 0.2 C 4.62 g/m*3 0.2 C 1.6 km/h
779 26-11-2013 09:35:00 0.2 C 4.67 g/m*3 -3 C 9.7 km/h
780 26-11-2013 09:40:00 0.3 C 4.7 g/m*3 -2.88 C 9.7 km/h
781 26-11-2013 09:45:00 0.3 C 4.7 g/m*3 0.3 C 4.8 km/h
782 26-11-2013 09:50:00 0.3 C 4.7 g/m*3 0.3 C 0 km/h
783 26-11-2013 09:55:00 0.3 C 4.7 g/m*3 0.3 C 1.6 km/h
784 26-11-2013 10:00:00 0.3 C 4.7 g/m*3 0.3 C 3.2 km/h
785 26-11-2013 10:05:00 0.3 C 4.7 g/m*3 0.3 C 0 km/h
786 26-11-2013 10:10:00 0.3 C 4.7 g/m*3 -1.84 C 6.4 km/h
787 26-11-2013 10:15:00 0.3 C 4.7 g/m*3 0.3 C 3.2 km/h
788 26-11-2013 10:20:00 0.4 C 4.73 g/m*3 0.4 C 1.6 km/h
789 26-11-2013 10:25:00 0.4 C 4.68 g/m*3 0.4 C 3.2 km/h
790 26-11-2013 10:30:00 0.4 C 4.68 g/m*3 0.4 C 3.2 km/h
791 26-11-2013 10:35:00 0.4 C 4.68 g/m*3 0.4 C 0 km/h
792 26-11-2013 10:40:00 0.4 C 4.68 g/m*3 0.4 C 0 km/h
793 26-11-2013 10:45:00 0.5 C 4.71 g/m*3 0.5 C 0 km/h
794 26-11-2013 10:50:00 0.6 C 4.75 g/m*3 0.6 C 1.6 km/h
795 26-11-2013 10:55:00 0.6 C 4.75 g/m*3 0.6 C 0 km/h
796 26-11-2013 11:00:00 0.7 C 4.78 g/m*3 0.7 C 3.2 km/h
797 26-11-2013 11:05:00 0.7 C 4.78 g/m*3 0.7 C 1.6 km/h
798 26-11-2013 11:10:00 0.7 C 4.78 g/m*3 0.7 C 3.2 km/h
799 26-11-2013 11:15:00 0.8 C 4.81 g/m*3 0.8 C 3.2 km/h
800 26-11-2013 11:20:00 0.8 C 4.81 g/m*3 0.8 C 3.2 km/h
Sensor: Nr:Datum:Temp:Abs-Feuchte:Windchill:Wind:
Aussen-T/F 801 26-11-2013 11:25:00 0.8 C 4.81 g/m*3 0.8 C 3.2 km/h
802 26-11-2013 11:30:00 0.9 C 4.85 g/m*3 0.9 C 0 km/h
803 26-11-2013 11:35:00 0.9 C 4.85 g/m*3 0.9 C 3.2 km/h
804 26-11-2013 11:40:00 1 C 4.88 g/m*3 1 C 3.2 km/h
805 26-11-2013 11:45:00 1.1 C 4.91 g/m*3 1.1 C 4.8 km/h
806 26-11-2013 11:50:00 1.1 C 4.91 g/m*3 1.1 C 3.2 km/h
807 26-11-2013 11:55:00 1.1 C 4.86 g/m*3 1.1 C 3.2 km/h
808 26-11-2013 12:00:00 1.2 C 4.89 g/m*3 1.2 C 1.6 km/h
809 26-11-2013 12:05:00 1.2 C 4.89 g/m*3 1.2 C 1.6 km/h
810 26-11-2013 12:10:00 1.2 C 4.89 g/m*3 1.2 C 4.8 km/h
811 26-11-2013 12:15:00 1.3 C 4.93 g/m*3 1.3 C 4.8 km/h
812 26-11-2013 12:20:00 1.2 C 4.89 g/m*3 1.2 C 1.6 km/h
813 26-11-2013 12:25:00 1.3 C 4.93 g/m*3 1.3 C 4.8 km/h
814 26-11-2013 12:30:00 1.3 C 4.93 g/m*3 1.3 C 3.2 km/h
815 26-11-2013 12:35:00 1.4 C 4.96 g/m*3 1.4 C 1.6 km/h
816 26-11-2013 12:40:00 1.4 C 4.96 g/m*3 1.4 C 3.2 km/h
817 26-11-2013 12:45:00 1.4 C 4.96 g/m*3 1.4 C 3.2 km/h
818 26-11-2013 12:50:00 1.4 C 4.96 g/m*3 1.4 C 1.6 km/h
819 26-11-2013 12:55:00 1.4 C 4.91 g/m*3 1.4 C 1.6 km/h
820 26-11-2013 13:00:00 1.5 C 4.99 g/m*3 1.5 C 1.6 km/h
821 26-11-2013 13:05:00 1.6 C 4.97 g/m*3 1.6 C 0 km/h
822 26-11-2013 13:10:00 1.6 C 4.97 g/m*3 1.6 C 1.6 km/h
823 26-11-2013 13:15:00 1.6 C 4.97 g/m*3 1.6 C 4.8 km/h
824 26-11-2013 13:20:00 1.6 C 4.97 g/m*3 1.6 C 4.8 km/h
825 26-11-2013 13:25:00 1.6 C 4.97 g/m*3 1.6 C 4.8 km/h
Sensor: Nr:Datum:Temp:Abs-Feuchte:Windchill:Wind:
Aussen-T/F 826 26-11-2013 13:30:00 1.6 C 4.97 g/m*3 1.6 C 3.2 km/h
827 26-11-2013 13:35:00 1.6 C 4.97 g/m*3 -0.33 C 6.4 km/h
828 26-11-2013 13:40:00 1.6 C 4.97 g/m*3 1.6 C 1.6 km/h
829 26-11-2013 13:45:00 1.6 C 4.97 g/m*3 1.6 C 4.8 km/h
830 26-11-2013 13:50:00 1.6 C 4.97 g/m*3 1.6 C 3.2 km/h
831 26-11-2013 13:55:00 1.6 C 4.97 g/m*3 1.6 C 1.6 km/h
832 26-11-2013 14:00:00 1.6 C 4.97 g/m*3 1.6 C 3.2 km/h
833 26-11-2013 14:05:00 1.6 C 4.97 g/m*3 1.6 C 3.2 km/h
834 26-11-2013 14:10:00 1.6 C 4.97 g/m*3 1.6 C 4.8 km/h
835 26-11-2013 14:15:00 1.5 C 4.89 g/m*3 1.5 C 4.8 km/h
836 26-11-2013 14:20:00 1.4 C 4.85 g/m*3 1.4 C 0 km/h
837 26-11-2013 14:25:00 1.4 C 4.85 g/m*3 1.4 C 0 km/h
838 26-11-2013 14:30:00 1.4 C 4.91 g/m*3 1.4 C 0 km/h
839 26-11-2013 14:35:00 1.4 C 4.91 g/m*3 1.4 C 0 km/h
840 26-11-2013 14:40:00 1.4 C 4.91 g/m*3 1.4 C 0 km/h
841 26-11-2013 14:45:00 1.4 C 4.91 g/m*3 1.4 C 3.2 km/h
842 26-11-2013 14:50:00 1.4 C 4.91 g/m*3 1.4 C 0 km/h
843 26-11-2013 14:55:00 1.4 C 4.85 g/m*3 1.4 C 1.6 km/h
844 26-11-2013 15:00:00 1.4 C 4.85 g/m*3 1.4 C 0 km/h
845 26-11-2013 15:05:00 1.4 C 4.91 g/m*3 1.4 C 0 km/h
846 26-11-2013 15:10:00 1.4 C 4.91 g/m*3 1.4 C 0 km/h
847 26-11-2013 15:15:00 1.3 C 4.82 g/m*3 1.3 C 0 km/h
848 26-11-2013 15:20:00 1.3 C 4.87 g/m*3 1.3 C 0 km/h
849 26-11-2013 15:25:00 1.3 C 4.87 g/m*3 1.3 C 0 km/h
850 26-11-2013 15:30:00 1.3 C 4.87 g/m*3 1.3 C 0 km/h
Sensor: Nr:Datum:Temp:Abs-Feuchte:Windchill:Wind:
Aussen-T/F 851 26-11-2013 15:35:00 1.4 C 4.91 g/m*3 1.4 C 1.6 km/h
852 26-11-2013 15:40:00 1.4 C 4.91 g/m*3 1.4 C 3.2 km/h
853 26-11-2013 15:45:00 1.4 C 4.91 g/m*3 1.4 C 4.8 km/h
854 26-11-2013 15:50:00 1.4 C 4.91 g/m*3 1.4 C 4.8 km/h
855 26-11-2013 15:55:00 1.4 C 4.91 g/m*3 1.4 C 0 km/h
856 26-11-2013 16:00:00 1.3 C 4.87 g/m*3 -0.68 C 6.4 km/h
857 26-11-2013 16:05:00 1.3 C 4.87 g/m*3 1.3 C 0 km/h
858 26-11-2013 16:10:00 1.2 C 4.84 g/m*3 1.2 C 0 km/h
859 26-11-2013 16:15:00 1.1 C 4.81 g/m*3 1.1 C 0 km/h
860 26-11-2013 16:20:00 1.1 C 4.86 g/m*3 1.1 C 0 km/h
861 26-11-2013 16:25:00 1.1 C 4.86 g/m*3 1.1 C 0 km/h
862 26-11-2013 16:30:00 1.1 C 4.86 g/m*3 1.1 C 0 km/h
863 26-11-2013 16:35:00 1.1 C 4.86 g/m*3 1.1 C 1.6 km/h
864 26-11-2013 16:40:00 1.1 C 4.86 g/m*3 1.1 C 3.2 km/h
865 26-11-2013 16:45:00 1.1 C 4.86 g/m*3 1.1 C 1.6 km/h
866 26-11-2013 16:50:00 1 C 4.83 g/m*3 1 C 1.6 km/h
867 26-11-2013 16:55:00 1 C 4.83 g/m*3 1 C 1.6 km/h
868 26-11-2013 17:00:00 0.9 C 4.79 g/m*3 0.9 C 0 km/h
869 26-11-2013 17:05:00 0.9 C 4.79 g/m*3 0.9 C 0 km/h
870 26-11-2013 17:10:00 0.8 C 4.76 g/m*3 0.8 C 3.2 km/h
871 26-11-2013 17:15:00 0.9 C 4.85 g/m*3 0.9 C 0 km/h
872 26-11-2013 17:20:00 0.9 C 4.85 g/m*3 0.9 C 0 km/h
873 26-11-2013 17:25:00 0.9 C 4.85 g/m*3 0.9 C 0 km/h
874 26-11-2013 17:30:00 0.9 C 4.85 g/m*3 0.9 C 1.6 km/h
875 26-11-2013 17:35:00 0.8 C 4.81 g/m*3 0.8 C 0 km/h
Sensor: Nr:Datum:Temp:Abs-Feuchte:Windchill:Wind:
Aussen-T/F 876 26-11-2013 17:40:00 0.8 C 4.81 g/m*3 0.8 C 0 km/h
877 26-11-2013 17:45:00 0.9 C 4.85 g/m*3 0.9 C 0 km/h
878 26-11-2013 17:50:00 0.9 C 4.85 g/m*3 0.9 C 0 km/h
879 26-11-2013 17:55:00 0.9 C 4.85 g/m*3 0.9 C 1.6 km/h
880 26-11-2013 18:00:00 0.8 C 4.81 g/m*3 0.8 C 1.6 km/h
881 26-11-2013 18:05:00 0.8 C 4.81 g/m*3 0.8 C 0 km/h
882 26-11-2013 18:10:00 0.8 C 4.81 g/m*3 0.8 C 0 km/h
883 26-11-2013 18:15:00 0.8 C 4.81 g/m*3 0.8 C 0 km/h
884 26-11-2013 18:20:00 0.8 C 4.81 g/m*3 0.8 C 0 km/h
885 26-11-2013 18:25:00 0.8 C 4.81 g/m*3 0.8 C 0 km/h
886 26-11-2013 18:30:00 0.8 C 4.81 g/m*3 0.8 C 0 km/h
887 26-11-2013 18:35:00 0.8 C 4.81 g/m*3 0.8 C 0 km/h
888 26-11-2013 18:40:00 0.8 C 4.81 g/m*3 0.8 C 1.6 km/h
889 26-11-2013 18:45:00 0.8 C 4.81 g/m*3 0.8 C 1.6 km/h
890 26-11-2013 18:50:00 0.8 C 4.81 g/m*3 0.8 C 0 km/h
891 26-11-2013 18:55:00 0.8 C 4.81 g/m*3 0.8 C 0 km/h
892 26-11-2013 19:00:00 0.9 C 4.85 g/m*3 0.9 C 0 km/h
893 26-11-2013 19:05:00 0.8 C 4.81 g/m*3 0.8 C 3.2 km/h
894 26-11-2013 19:10:00 0.8 C 4.81 g/m*3 0.8 C 0 km/h
895 26-11-2013 19:15:00 0.8 C 4.81 g/m*3 0.8 C 0 km/h
896 26-11-2013 19:20:00 0.9 C 4.85 g/m*3 0.9 C 0 km/h
897 26-11-2013 19:25:00 0.9 C 4.85 g/m*3 0.9 C 0 km/h
898 26-11-2013 19:30:00 0.9 C 4.85 g/m*3 0.9 C 0 km/h
899 26-11-2013 19:35:00 0.9 C 4.85 g/m*3 0.9 C 0 km/h
900 26-11-2013 19:40:00 0.9 C 4.85 g/m*3 0.9 C 0 km/h
Sensor: Nr:Datum:Temp:Abs-Feuchte:Windchill:Wind:
Aussen-T/F 901 26-11-2013 19:45:00 0.9 C 4.85 g/m*3 0.9 C 1.6 km/h
902 26-11-2013 19:50:00 0.9 C 4.85 g/m*3 0.9 C 3.2 km/h
903 26-11-2013 19:55:00 0.9 C 4.85 g/m*3 0.9 C 1.6 km/h
904 26-11-2013 20:00:00 0.9 C 4.9 g/m*3 0.9 C 3.2 km/h
905 26-11-2013 20:05:00 0.9 C 4.9 g/m*3 0.9 C 1.6 km/h
906 26-11-2013 20:10:00 0.8 C 4.86 g/m*3 0.8 C 3.2 km/h
907 26-11-2013 20:15:00 0.8 C 4.81 g/m*3 0.8 C 3.2 km/h
908 26-11-2013 20:20:00 0.8 C 4.86 g/m*3 0.8 C 4.8 km/h
909 26-11-2013 20:25:00 0.8 C 4.86 g/m*3 0.8 C 4.8 km/h
910 26-11-2013 20:30:00 0.8 C 4.86 g/m*3 0.8 C 3.2 km/h
911 26-11-2013 20:35:00 0.8 C 4.86 g/m*3 0.8 C 3.2 km/h
912 26-11-2013 20:40:00 0.7 C 4.83 g/m*3 0.7 C 1.6 km/h
913 26-11-2013 20:45:00 0.7 C 4.83 g/m*3 0.7 C 4.8 km/h
914 26-11-2013 20:50:00 0.7 C 4.83 g/m*3 0.7 C 4.8 km/h
915 26-11-2013 20:55:00 0.7 C 4.83 g/m*3 0.7 C 4.8 km/h
916 26-11-2013 21:00:00 0.7 C 4.83 g/m*3 0.7 C 3.2 km/h
917 26-11-2013 21:05:00 0.7 C 4.83 g/m*3 0.7 C 3.2 km/h
918 26-11-2013 21:10:00 0.7 C 4.83 g/m*3 0.7 C 3.2 km/h
919 26-11-2013 21:15:00 0.7 C 4.83 g/m*3 0.7 C 3.2 km/h
920 26-11-2013 21:20:00 0.6 C 4.8 g/m*3 0.6 C 3.2 km/h
921 26-11-2013 21:25:00 0.6 C 4.8 g/m*3 0.6 C 0 km/h
922 26-11-2013 21:30:00 0.6 C 4.8 g/m*3 0.6 C 0 km/h
923 26-11-2013 21:35:00 0.6 C 4.8 g/m*3 0.6 C 0 km/h
924 26-11-2013 21:40:00 0.6 C 4.8 g/m*3 0.6 C 3.2 km/h
925 26-11-2013 21:45:00 0.6 C 4.8 g/m*3 0.6 C 1.6 km/h
Sensor: Nr:Datum:Temp:Abs-Feuchte:Windchill:Wind:
Aussen-T/F 926 26-11-2013 21:50:00 0.6 C 4.8 g/m*3 0.6 C 1.6 km/h
927 26-11-2013 21:55:00 0.6 C 4.8 g/m*3 0.6 C 0 km/h
928 26-11-2013 22:00:00 0.6 C 4.8 g/m*3 0.6 C 1.6 km/h
929 26-11-2013 22:05:00 0.6 C 4.8 g/m*3 0.6 C 1.6 km/h
930 26-11-2013 22:10:00 0.6 C 4.8 g/m*3 0.6 C 0 km/h
931 26-11-2013 22:15:00 0.6 C 4.8 g/m*3 0.6 C 4.8 km/h
932 26-11-2013 22:20:00 0.6 C 4.8 g/m*3 0.6 C 1.6 km/h
933 26-11-2013 22:25:00 0.6 C 4.85 g/m*3 0.6 C 0 km/h
934 26-11-2013 22:30:00 0.6 C 4.85 g/m*3 0.6 C 0 km/h
935 26-11-2013 22:35:00 0.6 C 4.85 g/m*3 0.6 C 0 km/h
936 26-11-2013 22:40:00 0.6 C 4.85 g/m*3 0.6 C 0 km/h
937 26-11-2013 22:45:00 0.6 C 4.85 g/m*3 0.6 C 0 km/h
938 26-11-2013 22:50:00 0.6 C 4.85 g/m*3 0.6 C 1.6 km/h
939 26-11-2013 22:55:00 0.6 C 4.85 g/m*3 0.6 C 1.6 km/h
940 26-11-2013 23:00:00 0.6 C 4.85 g/m*3 0.6 C 0 km/h
941 26-11-2013 23:05:00 0.7 C 4.88 g/m*3 0.7 C 0 km/h
942 26-11-2013 23:10:00 0.7 C 4.88 g/m*3 0.7 C 0 km/h
943 26-11-2013 23:15:00 0.7 C 4.88 g/m*3 0.7 C 0 km/h
944 26-11-2013 23:20:00 0.7 C 4.88 g/m*3 0.7 C 0 km/h
945 26-11-2013 23:25:00 0.7 C 4.88 g/m*3 0.7 C 1.6 km/h
946 26-11-2013 23:30:00 0.7 C 4.88 g/m*3 0.7 C 3.2 km/h
947 26-11-2013 23:35:00 0.7 C 4.88 g/m*3 0.7 C 1.6 km/h
948 26-11-2013 23:40:00 0.7 C 4.88 g/m*3 0.7 C 3.2 km/h
949 26-11-2013 23:45:00 0.7 C 4.88 g/m*3 0.7 C 1.6 km/h
950 26-11-2013 23:50:00 0.7 C 4.88 g/m*3 0.7 C 0 km/h
Sensor: Nr:Datum:Temp:Abs-Feuchte:Windchill:Wind:
Aussen-T/F 951 26-11-2013 23:55:00 0.7 C 4.88 g/m*3 0.7 C 0 km/h
952 27-11-2013 00:00:00 0.7 C 4.88 g/m*3 0.7 C 0 km/h
953 27-11-2013 00:05:00 0.7 C 4.88 g/m*3 0.7 C 1.6 km/h
954 27-11-2013 00:10:00 0.7 C 4.88 g/m*3 0.7 C 1.6 km/h
955 27-11-2013 00:15:00 0.7 C 4.88 g/m*3 0.7 C 1.6 km/h
956 27-11-2013 00:20:00 0.7 C 4.88 g/m*3 0.7 C 3.2 km/h
957 27-11-2013 00:25:00 0.7 C 4.88 g/m*3 0.7 C 3.2 km/h
958 27-11-2013 00:30:00 0.7 C 4.88 g/m*3 0.7 C 1.6 km/h
959 27-11-2013 00:35:00 0.7 C 4.88 g/m*3 0.7 C 0 km/h
960 27-11-2013 00:40:00 0.7 C 4.88 g/m*3 0.7 C 0 km/h
961 27-11-2013 00:45:00 0.7 C 4.88 g/m*3 0.7 C 1.6 km/h
962 27-11-2013 00:50:00 0.7 C 4.88 g/m*3 0.7 C 3.2 km/h
963 27-11-2013 00:55:00 0.7 C 4.88 g/m*3 0.7 C 1.6 km/h
964 27-11-2013 01:00:00 0.7 C 4.88 g/m*3 0.7 C 1.6 km/h
965 27-11-2013 01:05:00 0.7 C 4.88 g/m*3 0.7 C 3.2 km/h
966 27-11-2013 01:10:00 0.7 C 4.88 g/m*3 0.7 C 0 km/h
967 27-11-2013 01:15:00 0.7 C 4.88 g/m*3 0.7 C 0 km/h
968 27-11-2013 01:20:00 0.7 C 4.88 g/m*3 0.7 C 0 km/h
969 27-11-2013 01:25:00 0.7 C 4.88 g/m*3 0.7 C 0 km/h
970 27-11-2013 01:30:00 0.7 C 4.88 g/m*3 0.7 C 0 km/h
971 27-11-2013 01:35:00 0.7 C 4.88 g/m*3 0.7 C 0 km/h
972 27-11-2013 01:40:00 0.7 C 4.88 g/m*3 0.7 C 0 km/h
973 27-11-2013 01:45:00 0.7 C 4.88 g/m*3 0.7 C 0 km/h
974 27-11-2013 01:50:00 0.7 C 4.83 g/m*3 0.7 C 1.6 km/h
975 27-11-2013 01:55:00 0.7 C 4.83 g/m*3 0.7 C 3.2 km/h
Sensor: Nr:Datum:Temp:Abs-Feuchte:Windchill:Wind:
Aussen-T/F 976 27-11-2013 02:00:00 0.7 C 4.83 g/m*3 0.7 C 3.2 km/h
977 27-11-2013 02:05:00 0.7 C 4.83 g/m*3 0.7 C 3.2 km/h
978 27-11-2013 02:10:00 0.6 C 4.8 g/m*3 0.6 C 3.2 km/h
979 27-11-2013 02:15:00 0.6 C 4.8 g/m*3 0.6 C 4.8 km/h
980 27-11-2013 02:20:00 0.6 C 4.8 g/m*3 0.6 C 3.2 km/h
981 27-11-2013 02:25:00 0.6 C 4.8 g/m*3 0.6 C 3.2 km/h
982 27-11-2013 02:30:00 0.6 C 4.8 g/m*3 0.6 C 4.8 km/h
983 27-11-2013 02:35:00 0.6 C 4.8 g/m*3 0.6 C 3.2 km/h
984 27-11-2013 02:40:00 0.6 C 4.75 g/m*3 0.6 C 4.8 km/h
985 27-11-2013 02:45:00 0.6 C 4.75 g/m*3 0.6 C 3.2 km/h
986 27-11-2013 02:50:00 0.6 C 4.75 g/m*3 0.6 C 1.6 km/h
987 27-11-2013 02:55:00 0.6 C 4.75 g/m*3 0.6 C 3.2 km/h
988 27-11-2013 03:00:00 0.6 C 4.75 g/m*3 0.6 C 0 km/h
989 27-11-2013 03:05:00 0.6 C 4.75 g/m*3 0.6 C 1.6 km/h
990 27-11-2013 03:10:00 0.6 C 4.75 g/m*3 0.6 C 3.2 km/h
991 27-11-2013 03:15:00 0.6 C 4.75 g/m*3 0.6 C 1.6 km/h
992 27-11-2013 03:20:00 0.6 C 4.75 g/m*3 0.6 C 1.6 km/h
993 27-11-2013 03:25:00 0.6 C 4.75 g/m*3 0.6 C 0 km/h
994 27-11-2013 03:30:00 0.6 C 4.75 g/m*3 0.6 C 0 km/h
995 27-11-2013 03:35:00 0.5 C 4.71 g/m*3 0.5 C 3.2 km/h
996 27-11-2013 03:40:00 0.5 C 4.71 g/m*3 0.5 C 3.2 km/h
997 27-11-2013 03:45:00 0.5 C 4.71 g/m*3 0.5 C 4.8 km/h
998 27-11-2013 03:50:00 0.5 C 4.71 g/m*3 0.5 C 3.2 km/h
999 27-11-2013 03:55:00 0.5 C 4.71 g/m*3 0.5 C 1.6 km/h
1000 27-11-2013 04:00:00 0.5 C 4.71 g/m*3 0.5 C 3.2 km/h
Sensor: Nr:Datum:Temp:Abs-Feuchte:Windchill:Wind:
Aussen-T/F 1001 27-11-2013 04:05:00 0.4 C 4.68 g/m*3 0.4 C 1.6 km/h
1002 27-11-2013 04:10:00 0.4 C 4.68 g/m*3 0.4 C 1.6 km/h
1003 27-11-2013 04:15:00 0.4 C 4.68 g/m*3 0.4 C 0 km/h
1004 27-11-2013 04:20:00 0.4 C 4.68 g/m*3 0.4 C 0 km/h
1005 27-11-2013 04:25:00 0.4 C 4.68 g/m*3 0.4 C 0 km/h
1006 27-11-2013 04:30:00 0.4 C 4.68 g/m*3 0.4 C 0 km/h
1007 27-11-2013 04:35:00 0.4 C 4.68 g/m*3 0.4 C 0 km/h
1008 27-11-2013 04:40:00 0.4 C 4.63 g/m*3 0.4 C 0 km/h
1009 27-11-2013 04:45:00 0.4 C 4.63 g/m*3 0.4 C 0 km/h
1010 27-11-2013 04:50:00 0.4 C 4.63 g/m*3 0.4 C 3.2 km/h
1011 27-11-2013 04:55:00 0.4 C 4.63 g/m*3 0.4 C 3.2 km/h
1012 27-11-2013 05:00:00 0.4 C 4.63 g/m*3 0.4 C 1.6 km/h
1013 27-11-2013 05:05:00 0.3 C 4.6 g/m*3 0.3 C 3.2 km/h
1014 27-11-2013 05:10:00 0.3 C 4.6 g/m*3 0.3 C 1.6 km/h
1015 27-11-2013 05:15:00 0.3 C 4.6 g/m*3 0.3 C 1.6 km/h
1016 27-11-2013 05:20:00 0.3 C 4.6 g/m*3 0.3 C 1.6 km/h
1017 27-11-2013 05:25:00 0.3 C 4.6 g/m*3 0.3 C 1.6 km/h
1018 27-11-2013 05:30:00 0.3 C 4.6 g/m*3 0.3 C 4.8 km/h
1019 27-11-2013 05:35:00 0.2 C 4.57 g/m*3 -1.95 C 6.4 km/h
1020 27-11-2013 05:40:00 0.2 C 4.52 g/m*3 -1.95 C 6.4 km/h
1021 27-11-2013 05:45:00 0.2 C 4.52 g/m*3 -1.95 C 6.4 km/h
1022 27-11-2013 05:50:00 0.2 C 4.52 g/m*3 0.2 C 1.6 km/h
1023 27-11-2013 05:55:00 0.2 C 4.52 g/m*3 0.2 C 3.2 km/h
1024 27-11-2013 06:00:00 0.2 C 4.52 g/m*3 0.2 C 3.2 km/h
1025 27-11-2013 06:05:00 0.1 C 4.49 g/m*3 0.1 C 4.8 km/h
Sensor: Nr:Datum:Temp:Abs-Feuchte:Windchill:Wind:
Aussen-T/F 1026 27-11-2013 06:10:00 0.1 C 4.44 g/m*3 0.1 C 3.2 km/h
1027 27-11-2013 06:15:00 0.1 C 4.44 g/m*3 0.1 C 3.2 km/h
1028 27-11-2013 06:20:00 0.1 C 4.49 g/m*3 0.1 C 4.8 km/h
1029 27-11-2013 06:25:00 0.1 C 4.49 g/m*3 0.1 C 3.2 km/h
1030 27-11-2013 06:30:00 0.1 C 4.49 g/m*3 0.1 C 0 km/h
1031 27-11-2013 06:35:00 0.1 C 4.44 g/m*3 0.1 C 3.2 km/h
1032 27-11-2013 06:40:00 0.1 C 4.44 g/m*3 0.1 C 3.2 km/h
1033 27-11-2013 06:45:00 0 C 4.46 g/m*3 0 C 4.8 km/h
1034 27-11-2013 06:50:00 0 C 4.46 g/m*3 0 C 4.8 km/h
1035 27-11-2013 06:55:00 0.1 C 4.49 g/m*3 0.1 C 1.6 km/h
1036 27-11-2013 07:00:00 0 C 4.41 g/m*3 0 C 3.2 km/h
1037 27-11-2013 07:05:00 0 C 4.41 g/m*3 0 C 4.8 km/h
1038 27-11-2013 07:10:00 0 C 4.46 g/m*3 0 C 4.8 km/h
1039 27-11-2013 07:15:00 0 C 4.46 g/m*3 -2.77 C 8.1 km/h
1040 27-11-2013 07:20:00 -0.1 C 4.38 g/m*3 -2.89 C 8.1 km/h
1041 27-11-2013 07:25:00 -0.1 C 4.38 g/m*3 -0.1 C 4.8 km/h
1042 27-11-2013 07:30:00 -0.2 C 4.35 g/m*3 -0.2 C 4.8 km/h
1043 27-11-2013 07:35:00 -0.2 C 4.4 g/m*3 -0.2 C 4.8 km/h
1044 27-11-2013 07:40:00 -0.2 C 4.4 g/m*3 -0.2 C 3.2 km/h
1045 27-11-2013 07:45:00 -0.2 C 4.4 g/m*3 -0.2 C 3.2 km/h
1046 27-11-2013 07:50:00 -0.2 C 4.4 g/m*3 -0.2 C 4.8 km/h
1047 27-11-2013 07:55:00 -0.2 C 4.4 g/m*3 -0.2 C 3.2 km/h
1048 27-11-2013 08:00:00 -0.2 C 4.35 g/m*3 -0.2 C 4.8 km/h
1049 27-11-2013 08:05:00 -0.2 C 4.4 g/m*3 -0.2 C 3.2 km/h
1050 27-11-2013 08:10:00 -0.2 C 4.4 g/m*3 -0.2 C 4.8 km/h
Sensor: Nr:Datum:Temp:Abs-Feuchte:Windchill:Wind:
Aussen-T/F 1051 27-11-2013 08:15:00 -0.2 C 4.4 g/m*3 -3 C 8.1 km/h
1052 27-11-2013 08:20:00 -0.2 C 4.4 g/m*3 -0.2 C 4.8 km/h
1053 27-11-2013 08:25:00 -0.2 C 4.4 g/m*3 -0.2 C 1.6 km/h
1054 27-11-2013 08:30:00 -0.2 C 4.4 g/m*3 -2.41 C 6.4 km/h
1055 27-11-2013 08:35:00 -0.2 C 4.4 g/m*3 -2.41 C 6.4 km/h
1056 27-11-2013 08:40:00 -0.2 C 4.4 g/m*3 -0.2 C 4.8 km/h
1057 27-11-2013 08:45:00 -0.2 C 4.35 g/m*3 -0.2 C 4.8 km/h
1058 27-11-2013 08:50:00 -0.2 C 4.35 g/m*3 -2.41 C 6.4 km/h
1059 27-11-2013 08:55:00 -0.2 C 4.35 g/m*3 -0.2 C 4.8 km/h
1060 27-11-2013 09:00:00 -0.2 C 4.35 g/m*3 -0.2 C 3.2 km/h
1061 27-11-2013 09:05:00 -0.2 C 4.35 g/m*3 -0.2 C 4.8 km/h
1062 27-11-2013 09:10:00 -0.1 C 4.38 g/m*3 -0.1 C 4.8 km/h
1063 27-11-2013 09:15:00 -0.1 C 4.38 g/m*3 -2.3 C 6.4 km/h
1064 27-11-2013 09:20:00 -0.1 C 4.38 g/m*3 -0.1 C 4.8 km/h
1065 27-11-2013 09:25:00 -0.1 C 4.38 g/m*3 -0.1 C 4.8 km/h
1066 27-11-2013 09:30:00 -0.1 C 4.38 g/m*3 -0.1 C 3.2 km/h
1067 27-11-2013 09:35:00 0 C 4.46 g/m*3 0 C 4.8 km/h
1068 27-11-2013 09:40:00 0 C 4.46 g/m*3 0 C 4.8 km/h
1069 27-11-2013 09:45:00 0 C 4.46 g/m*3 -2.18 C 6.4 km/h
1070 27-11-2013 09:50:00 0 C 4.46 g/m*3 0 C 3.2 km/h
1071 27-11-2013 09:55:00 -0.1 C 4.38 g/m*3 -0.1 C 3.2 km/h
1072 27-11-2013 10:00:00 -0.1 C 4.43 g/m*3 -0.1 C 4.8 km/h
1073 27-11-2013 10:05:00 0 C 4.46 g/m*3 0 C 3.2 km/h
1074 27-11-2013 10:10:00 0 C 4.41 g/m*3 -2.18 C 6.4 km/h
1075 27-11-2013 10:15:00 0 C 4.41 g/m*3 -2.18 C 6.4 km/h
Sensor: Nr:Datum:Temp:Abs-Feuchte:Windchill:Wind:
Aussen-T/F 1076 27-11-2013 10:20:00 0 C 4.46 g/m*3 -2.18 C 6.4 km/h
1077 27-11-2013 10:25:00 0.1 C 4.44 g/m*3 -2.65 C 8.1 km/h
1078 27-11-2013 10:30:00 0.1 C 4.44 g/m*3 -2.07 C 6.4 km/h
1079 27-11-2013 10:35:00 0.2 C 4.47 g/m*3 0.2 C 4.8 km/h
1080 27-11-2013 10:40:00 0.2 C 4.47 g/m*3 -1.95 C 6.4 km/h
1081 27-11-2013 10:45:00 0.2 C 4.47 g/m*3 -2.53 C 8.1 km/h
1082 27-11-2013 10:50:00 0.2 C 4.47 g/m*3 -2.53 C 8.1 km/h
1083 27-11-2013 10:55:00 0.2 C 4.42 g/m*3 0.2 C 4.8 km/h
1084 27-11-2013 11:00:00 0.2 C 4.47 g/m*3 -1.95 C 6.4 km/h
1085 27-11-2013 11:05:00 0.1 C 4.39 g/m*3 -2.07 C 6.4 km/h
1086 27-11-2013 11:10:00 0.1 C 4.39 g/m*3 0.1 C 4.8 km/h
1087 27-11-2013 11:15:00 0.1 C 4.44 g/m*3 -2.65 C 8.1 km/h
1088 27-11-2013 11:20:00 0.1 C 4.39 g/m*3 -2.07 C 6.4 km/h
1089 27-11-2013 11:25:00 0.1 C 4.39 g/m*3 -2.07 C 6.4 km/h
1090 27-11-2013 11:30:00 0.1 C 4.44 g/m*3 -2.07 C 6.4 km/h
1091 27-11-2013 11:35:00 0.1 C 4.39 g/m*3 -2.07 C 6.4 km/h
1092 27-11-2013 11:40:00 0.2 C 4.47 g/m*3 0.2 C 4.8 km/h
1093 27-11-2013 11:45:00 0.2 C 4.42 g/m*3 -2.53 C 8.1 km/h
1094 27-11-2013 11:50:00 0.2 C 4.42 g/m*3 0.2 C 4.8 km/h
1095 27-11-2013 11:55:00 0.2 C 4.42 g/m*3 0.2 C 4.8 km/h
1096 27-11-2013 12:00:00 0.3 C 4.5 g/m*3 0.3 C 3.2 km/h
1097 27-11-2013 12:05:00 0.4 C 4.48 g/m*3 -1.72 C 6.4 km/h
1098 27-11-2013 12:10:00 0.4 C 4.48 g/m*3 0.4 C 3.2 km/h
1099 27-11-2013 12:15:00 0.6 C 4.54 g/m*3 0.6 C 4.8 km/h
1100 27-11-2013 12:20:00 0.7 C 4.58 g/m*3 0.7 C 4.8 km/h
Sensor: Nr:Datum:Temp:Abs-Feuchte:Windchill:Wind:
Aussen-T/F 1101 27-11-2013 12:25:00 0.8 C 4.56 g/m*3 0.8 C 4.8 km/h
1102 27-11-2013 12:30:00 0.8 C 4.56 g/m*3 0.8 C 3.2 km/h
1103 27-11-2013 12:35:00 0.8 C 4.56 g/m*3 0.8 C 4.8 km/h
1104 27-11-2013 12:40:00 0.8 C 4.56 g/m*3 0.8 C 3.2 km/h
1105 27-11-2013 12:45:00 0.8 C 4.56 g/m*3 0.8 C 3.2 km/h
1106 27-11-2013 12:50:00 0.9 C 4.59 g/m*3 0.9 C 0 km/h
1107 27-11-2013 12:55:00 0.9 C 4.59 g/m*3 0.9 C 0 km/h
1108 27-11-2013 13:00:00 1 C 4.57 g/m*3 1 C 0 km/h
1109 27-11-2013 13:05:00 1 C 4.57 g/m*3 1 C 0 km/h
1110 27-11-2013 13:10:00 1 C 4.62 g/m*3 1 C 0 km/h
1111 27-11-2013 13:15:00 1.1 C 4.6 g/m*3 1.1 C 1.6 km/h
1112 27-11-2013 13:20:00 1.1 C 4.65 g/m*3 1.1 C 0 km/h
1113 27-11-2013 13:25:00 1.1 C 4.65 g/m*3 1.1 C 0 km/h
1114 27-11-2013 13:30:00 1.1 C 4.65 g/m*3 1.1 C 0 km/h
1115 27-11-2013 13:35:00 1.1 C 4.65 g/m*3 1.1 C 1.6 km/h
1116 27-11-2013 13:40:00 1.2 C 4.68 g/m*3 1.2 C 1.6 km/h
1117 27-11-2013 13:45:00 1.3 C 4.72 g/m*3 1.3 C 1.6 km/h
1118 27-11-2013 13:50:00 1.3 C 4.66 g/m*3 1.3 C 1.6 km/h
1119 27-11-2013 13:55:00 1.4 C 4.69 g/m*3 1.4 C 4.8 km/h
1120 27-11-2013 14:00:00 1.4 C 4.69 g/m*3 1.4 C 3.2 km/h
1121 27-11-2013 14:05:00 1.4 C 4.75 g/m*3 1.4 C 0 km/h
1122 27-11-2013 14:10:00 1.4 C 4.75 g/m*3 1.4 C 0 km/h
1123 27-11-2013 14:15:00 1.5 C 4.78 g/m*3 1.5 C 1.6 km/h
1124 27-11-2013 14:20:00 1.6 C 4.81 g/m*3 1.6 C 0 km/h
1125 27-11-2013 14:25:00 1.6 C 4.81 g/m*3 1.6 C 3.2 km/h
Sensor: Nr:Datum:Temp:Abs-Feuchte:Windchill:Wind:
Aussen-T/F 1126 27-11-2013 14:30:00 1.7 C 4.85 g/m*3 1.7 C 4.8 km/h
1127 27-11-2013 14:35:00 1.8 C 4.82 g/m*3 1.8 C 3.2 km/h
1128 27-11-2013 14:40:00 1.8 C 4.82 g/m*3 1.8 C 3.2 km/h
1129 27-11-2013 14:45:00 1.8 C 4.82 g/m*3 1.8 C 1.6 km/h
1130 27-11-2013 14:50:00 1.8 C 4.82 g/m*3 1.8 C 1.6 km/h
1131 27-11-2013 14:55:00 1.8 C 4.82 g/m*3 1.8 C 0 km/h
1132 27-11-2013 15:00:00 1.7 C 4.79 g/m*3 1.7 C 0 km/h
1133 27-11-2013 15:05:00 1.7 C 4.85 g/m*3 1.7 C 0 km/h
1134 27-11-2013 15:10:00 1.6 C 4.81 g/m*3 1.6 C 3.2 km/h
1135 27-11-2013 15:15:00 1.6 C 4.81 g/m*3 1.6 C 0 km/h
1136 27-11-2013 15:20:00 1.5 C 4.83 g/m*3 1.5 C 0 km/h
1137 27-11-2013 15:25:00 1.4 C 4.8 g/m*3 1.4 C 0 km/h
1138 27-11-2013 15:30:00 1.4 C 4.8 g/m*3 1.4 C 0 km/h
1139 27-11-2013 15:35:00 1.4 C 4.8 g/m*3 1.4 C 0 km/h
1140 27-11-2013 15:40:00 1.2 C 4.74 g/m*3 1.2 C 0 km/h
1141 27-11-2013 15:45:00 1.1 C 4.76 g/m*3 1.1 C 0 km/h
1142 27-11-2013 15:50:00 1 C 4.72 g/m*3 1 C 1.6 km/h
1143 27-11-2013 15:55:00 0.9 C 4.74 g/m*3 0.9 C 0 km/h
1144 27-11-2013 16:00:00 0.9 C 4.74 g/m*3 0.9 C 0 km/h
1145 27-11-2013 16:05:00 0.9 C 4.74 g/m*3 0.9 C 0 km/h
1146 27-11-2013 16:10:00 0.8 C 4.71 g/m*3 0.8 C 0 km/h
1147 27-11-2013 16:15:00 0.8 C 4.71 g/m*3 0.8 C 0 km/h
1148 27-11-2013 16:20:00 0.7 C 4.73 g/m*3 0.7 C 0 km/h
1149 27-11-2013 16:25:00 0.7 C 4.73 g/m*3 0.7 C 0 km/h
1150 27-11-2013 16:30:00 0.7 C 4.73 g/m*3 0.7 C 0 km/h
Sensor: Nr:Datum:Temp:Abs-Feuchte:Windchill:Wind:
Aussen-T/F 1151 27-11-2013 16:35:00 0.7 C 4.73 g/m*3 0.7 C 0 km/h
1152 27-11-2013 16:40:00 0.7 C 4.73 g/m*3 0.7 C 0 km/h
1153 27-11-2013 16:45:00 0.6 C 4.7 g/m*3 0.6 C 0 km/h
1154 27-11-2013 16:50:00 0.6 C 4.7 g/m*3 0.6 C 0 km/h
1155 27-11-2013 16:55:00 0.5 C 4.66 g/m*3 0.5 C 0 km/h
1156 27-11-2013 17:00:00 0.5 C 4.66 g/m*3 0.5 C 0 km/h
1157 27-11-2013 17:05:00 0.5 C 4.66 g/m*3 0.5 C 0 km/h
1158 27-11-2013 17:10:00 0.5 C 4.71 g/m*3 0.5 C 1.6 km/h
1159 27-11-2013 17:15:00 0.5 C 4.71 g/m*3 0.5 C 0 km/h
1160 27-11-2013 17:20:00 0.6 C 4.75 g/m*3 0.6 C 0 km/h
1161 27-11-2013 17:25:00 0.6 C 4.75 g/m*3 0.6 C 0 km/h
1162 27-11-2013 17:30:00 0.6 C 4.75 g/m*3 0.6 C 0 km/h
1163 27-11-2013 17:35:00 0.5 C 4.71 g/m*3 0.5 C 0 km/h
1164 27-11-2013 17:40:00 0.5 C 4.71 g/m*3 0.5 C 0 km/h
1165 27-11-2013 17:45:00 0.5 C 4.71 g/m*3 0.5 C 0 km/h
1166 27-11-2013 17:50:00 0.5 C 4.71 g/m*3 0.5 C 0 km/h
1167 27-11-2013 17:55:00 0.6 C 4.75 g/m*3 0.6 C 0 km/h
1168 27-11-2013 18:00:00 0.6 C 4.75 g/m*3 0.6 C 0 km/h
1169 27-11-2013 18:05:00 0.7 C 4.78 g/m*3 0.7 C 0 km/h
1170 27-11-2013 18:10:00 0.7 C 4.78 g/m*3 0.7 C 0 km/h
1171 27-11-2013 18:15:00 0.7 C 4.78 g/m*3 0.7 C 0 km/h
1172 27-11-2013 18:20:00 0.7 C 4.78 g/m*3 0.7 C 0 km/h
1173 27-11-2013 18:25:00 0.8 C 4.81 g/m*3 0.8 C 0 km/h
1174 27-11-2013 18:30:00 0.8 C 4.81 g/m*3 0.8 C 0 km/h
1175 27-11-2013 18:35:00 0.8 C 4.81 g/m*3 0.8 C 0 km/h
Sensor: Nr:Datum:Temp:Abs-Feuchte:Windchill:Wind:
Aussen-T/F 1176 27-11-2013 18:40:00 0.8 C 4.81 g/m*3 0.8 C 0 km/h
1177 27-11-2013 18:45:00 0.8 C 4.81 g/m*3 0.8 C 0 km/h
1178 27-11-2013 18:50:00 0.8 C 4.81 g/m*3 0.8 C 0 km/h
1179 27-11-2013 18:55:00 0.9 C 4.85 g/m*3 0.9 C 0 km/h
1180 27-11-2013 19:00:00 0.9 C 4.85 g/m*3 0.9 C 0 km/h
1181 27-11-2013 19:05:00 0.9 C 4.85 g/m*3 0.9 C 0 km/h
1182 27-11-2013 19:10:00 1 C 4.88 g/m*3 1 C 0 km/h
1183 27-11-2013 19:15:00 1 C 4.88 g/m*3 1 C 0 km/h
1184 27-11-2013 19:20:00 1.1 C 4.91 g/m*3 1.1 C 0 km/h
1185 27-11-2013 19:25:00 1.1 C 4.91 g/m*3 1.1 C 0 km/h
1186 27-11-2013 19:30:00 1.1 C 4.91 g/m*3 1.1 C 0 km/h
1187 27-11-2013 19:35:00 1.1 C 4.86 g/m*3 1.1 C 0 km/h
1188 27-11-2013 19:40:00 1.1 C 4.86 g/m*3 1.1 C 0 km/h
1189 27-11-2013 19:45:00 1.1 C 4.86 g/m*3 1.1 C 0 km/h
1190 27-11-2013 19:50:00 1 C 4.83 g/m*3 1 C 0 km/h
1191 27-11-2013 19:55:00 1 C 4.83 g/m*3 1 C 0 km/h
1192 27-11-2013 20:00:00 1 C 4.83 g/m*3 1 C 0 km/h
1193 27-11-2013 20:05:00 0.9 C 4.79 g/m*3 0.9 C 0 km/h
1194 27-11-2013 20:10:00 0.9 C 4.79 g/m*3 0.9 C 0 km/h
1195 27-11-2013 20:15:00 0.8 C 4.76 g/m*3 0.8 C 0 km/h
1196 27-11-2013 20:20:00 0.8 C 4.76 g/m*3 0.8 C 0 km/h
1197 27-11-2013 20:25:00 0.7 C 4.73 g/m*3 0.7 C 0 km/h
1198 27-11-2013 20:30:00 0.7 C 4.78 g/m*3 0.7 C 0 km/h
1199 27-11-2013 20:35:00 0.6 C 4.75 g/m*3 0.6 C 0 km/h
1200 27-11-2013 20:40:00 0.5 C 4.71 g/m*3 0.5 C 1.6 km/h
Sensor: Nr:Datum:Temp:Abs-Feuchte:Windchill:Wind:
Aussen-T/F 1201 27-11-2013 20:45:00 0.5 C 4.71 g/m*3 0.5 C 0 km/h
1202 27-11-2013 20:50:00 0.5 C 4.71 g/m*3 0.5 C 0 km/h
1203 27-11-2013 20:55:00 0.6 C 4.75 g/m*3 0.6 C 0 km/h
1204 27-11-2013 21:00:00 0.7 C 4.78 g/m*3 0.7 C 0 km/h
1205 27-11-2013 21:05:00 0.7 C 4.78 g/m*3 0.7 C 0 km/h
1206 27-11-2013 21:10:00 0.8 C 4.81 g/m*3 0.8 C 0 km/h
1207 27-11-2013 21:15:00 0.8 C 4.81 g/m*3 0.8 C 0 km/h
1208 27-11-2013 21:20:00 0.8 C 4.81 g/m*3 0.8 C 0 km/h
1209 27-11-2013 21:25:00 0.9 C 4.85 g/m*3 0.9 C 0 km/h
1210 27-11-2013 21:30:00 0.9 C 4.85 g/m*3 0.9 C 0 km/h
1211 27-11-2013 21:35:00 0.9 C 4.85 g/m*3 0.9 C 0 km/h
1212 27-11-2013 21:40:00 0.9 C 4.85 g/m*3 0.9 C 0 km/h
1213 27-11-2013 21:45:00 1 C 4.88 g/m*3 1 C 0 km/h
1214 27-11-2013 21:50:00 1 C 4.88 g/m*3 1 C 0 km/h
1215 27-11-2013 21:55:00 1.1 C 4.91 g/m*3 1.1 C 0 km/h
1216 27-11-2013 22:00:00 1.1 C 4.91 g/m*3 1.1 C 0 km/h
1217 27-11-2013 22:05:00 1.1 C 4.91 g/m*3 1.1 C 0 km/h
1218 27-11-2013 22:10:00 1.1 C 4.91 g/m*3 1.1 C 0 km/h
1219 27-11-2013 22:15:00 1.2 C 4.95 g/m*3 1.2 C 0 km/h
1220 27-11-2013 22:20:00 1.2 C 4.95 g/m*3 1.2 C 0 km/h
1221 27-11-2013 22:25:00 1.2 C 4.95 g/m*3 1.2 C 0 km/h
1222 27-11-2013 22:30:00 1.2 C 4.95 g/m*3 1.2 C 0 km/h
1223 27-11-2013 22:35:00 1.3 C 4.98 g/m*3 1.3 C 0 km/h
1224 27-11-2013 22:40:00 1.3 C 4.98 g/m*3 1.3 C 0 km/h
1225 27-11-2013 22:45:00 1.3 C 4.98 g/m*3 1.3 C 0 km/h
Sensor: Nr:Datum:Temp:Abs-Feuchte:Windchill:Wind:
Aussen-T/F 1226 27-11-2013 22:50:00 1.3 C 4.98 g/m*3 1.3 C 0 km/h
1227 27-11-2013 22:55:00 1.3 C 4.98 g/m*3 1.3 C 0 km/h
1228 27-11-2013 23:00:00 1.4 C 5.01 g/m*3 1.4 C 0 km/h
1229 27-11-2013 23:05:00 1.4 C 5.01 g/m*3 1.4 C 0 km/h
1230 27-11-2013 23:10:00 1.4 C 5.01 g/m*3 1.4 C 0 km/h
1231 27-11-2013 23:15:00 1.4 C 5.01 g/m*3 1.4 C 0 km/h
1232 27-11-2013 23:20:00 1.4 C 5.01 g/m*3 1.4 C 0 km/h
1233 27-11-2013 23:25:00 1.5 C 4.99 g/m*3 1.5 C 0 km/h
1234 27-11-2013 23:30:00 1.5 C 4.99 g/m*3 1.5 C 0 km/h
1235 27-11-2013 23:35:00 1.5 C 4.99 g/m*3 1.5 C 0 km/h
1236 27-11-2013 23:40:00 1.5 C 4.99 g/m*3 1.5 C 0 km/h
1237 27-11-2013 23:45:00 1.5 C 4.99 g/m*3 1.5 C 0 km/h
1238 27-11-2013 23:50:00 1.6 C 5.03 g/m*3 1.6 C 0 km/h
1239 27-11-2013 23:55:00 1.6 C 5.03 g/m*3 1.6 C 0 km/h
1240 28-11-2013 00:00:00 1.6 C 5.03 g/m*3 1.6 C 0 km/h
1241 28-11-2013 00:05:00 1.6 C 5.03 g/m*3 1.6 C 0 km/h
1242 28-11-2013 00:10:00 1.6 C 5.03 g/m*3 1.6 C 0 km/h
1243 28-11-2013 00:15:00 1.6 C 5.03 g/m*3 1.6 C 0 km/h
1244 28-11-2013 00:20:00 1.6 C 5.03 g/m*3 1.6 C 0 km/h
1245 28-11-2013 00:25:00 1.6 C 5.03 g/m*3 1.6 C 0 km/h
1246 28-11-2013 00:30:00 1.6 C 5.03 g/m*3 1.6 C 0 km/h
1247 28-11-2013 00:35:00 1.6 C 5.03 g/m*3 1.6 C 0 km/h
1248 28-11-2013 00:40:00 1.7 C 5.06 g/m*3 1.7 C 0 km/h
1249 28-11-2013 00:45:00 1.7 C 5.06 g/m*3 1.7 C 0 km/h
1250 28-11-2013 00:50:00 1.7 C 5.06 g/m*3 1.7 C 0 km/h
Sensor: Nr:Datum:Temp:Abs-Feuchte:Windchill:Wind:
Aussen-T/F 1251 28-11-2013 00:55:00 1.8 C 5.1 g/m*3 1.8 C 0 km/h
1252 28-11-2013 01:00:00 1.8 C 5.1 g/m*3 1.8 C 0 km/h
1253 28-11-2013 01:05:00 1.8 C 5.1 g/m*3 1.8 C 1.6 km/h
1254 28-11-2013 01:10:00 1.8 C 5.04 g/m*3 1.8 C 1.6 km/h
1255 28-11-2013 01:15:00 1.9 C 5.02 g/m*3 1.9 C 0 km/h
1256 28-11-2013 01:20:00 1.9 C 5.02 g/m*3 1.9 C 1.6 km/h
1257 28-11-2013 01:25:00 2 C 5.06 g/m*3 2 C 1.6 km/h
1258 28-11-2013 01:30:00 2.1 C 5.15 g/m*3 2.1 C 1.6 km/h
1259 28-11-2013 01:35:00 2.1 C 5.15 g/m*3 2.1 C 0 km/h
1260 28-11-2013 01:40:00 2.1 C 5.15 g/m*3 2.1 C 1.6 km/h
1261 28-11-2013 01:45:00 2.1 C 5.15 g/m*3 2.1 C 3.2 km/h
1262 28-11-2013 01:50:00 2 C 5.06 g/m*3 2 C 3.2 km/h
1263 28-11-2013 01:55:00 2.1 C 5.04 g/m*3 2.1 C 1.6 km/h
1264 28-11-2013 02:00:00 2.2 C 5.01 g/m*3 -0.61 C 9.7 km/h
1265 28-11-2013 02:05:00 2.3 C 5.05 g/m*3 2.3 C 4.8 km/h
1266 28-11-2013 02:10:00 2.3 C 4.99 g/m*3 2.3 C 3.2 km/h
1267 28-11-2013 02:15:00 2.3 C 5.05 g/m*3 2.3 C 1.6 km/h
1268 28-11-2013 02:20:00 2.3 C 5.05 g/m*3 2.3 C 3.2 km/h
1269 28-11-2013 02:25:00 2.3 C 4.99 g/m*3 -0.49 C 9.7 km/h
1270 28-11-2013 02:30:00 2.4 C 5.02 g/m*3 0.05 C 8.1 km/h
1271 28-11-2013 02:35:00 2.5 C 5.06 g/m*3 0.71 C 6.4 km/h
1272 28-11-2013 02:40:00 2.5 C 5.06 g/m*3 2.5 C 4.8 km/h
1273 28-11-2013 02:45:00 2.5 C 5.06 g/m*3 2.5 C 1.6 km/h
1274 28-11-2013 02:50:00 2.4 C 5.02 g/m*3 2.4 C 4.8 km/h
1275 28-11-2013 02:55:00 2.5 C 5.06 g/m*3 0.17 C 8.1 km/h
Sensor: Nr:Datum:Temp:Abs-Feuchte:Windchill:Wind:
Aussen-T/F 1276 28-11-2013 03:00:00 2.5 C 5.06 g/m*3 2.5 C 3.2 km/h
1277 28-11-2013 03:05:00 2.6 C 5.09 g/m*3 2.6 C 4.8 km/h
1278 28-11-2013 03:10:00 2.6 C 5.09 g/m*3 2.6 C 1.6 km/h
1279 28-11-2013 03:15:00 2.6 C 5.09 g/m*3 2.6 C 3.2 km/h
1280 28-11-2013 03:20:00 2.6 C 5.15 g/m*3 2.6 C 0 km/h
1281 28-11-2013 03:25:00 2.5 C 5.17 g/m*3 2.5 C 1.6 km/h
1282 28-11-2013 03:30:00 2.5 C 5.17 g/m*3 2.5 C 3.2 km/h
1283 28-11-2013 03:35:00 2.5 C 5.17 g/m*3 2.5 C 4.8 km/h
1284 28-11-2013 03:40:00 2.4 C 5.14 g/m*3 2.4 C 1.6 km/h
1285 28-11-2013 03:45:00 2.4 C 5.2 g/m*3 2.4 C 1.6 km/h
1286 28-11-2013 03:50:00 2.4 C 5.2 g/m*3 2.4 C 1.6 km/h
1287 28-11-2013 03:55:00 2.4 C 5.2 g/m*3 2.4 C 0 km/h
1288 28-11-2013 04:00:00 2.4 C 5.2 g/m*3 2.4 C 1.6 km/h
1289 28-11-2013 04:05:00 2.4 C 5.14 g/m*3 2.4 C 0 km/h
1290 28-11-2013 04:10:00 2.4 C 5.14 g/m*3 2.4 C 3.2 km/h
1291 28-11-2013 04:15:00 2.5 C 5.17 g/m*3 2.5 C 3.2 km/h
1292 28-11-2013 04:20:00 2.5 C 5.17 g/m*3 0.71 C 6.4 km/h
1293 28-11-2013 04:25:00 2.6 C 5.21 g/m*3 2.6 C 3.2 km/h
1294 28-11-2013 04:30:00 2.6 C 5.21 g/m*3 2.6 C 0 km/h
1295 28-11-2013 04:35:00 2.6 C 5.27 g/m*3 2.6 C 0 km/h
1296 28-11-2013 04:40:00 2.6 C 5.27 g/m*3 2.6 C 0 km/h
1297 28-11-2013 04:45:00 2.6 C 5.27 g/m*3 2.6 C 0 km/h
1298 28-11-2013 04:50:00 2.6 C 5.27 g/m*3 2.6 C 0 km/h
1299 28-11-2013 04:55:00 2.6 C 5.27 g/m*3 2.6 C 0 km/h
1300 28-11-2013 05:00:00 2.6 C 5.27 g/m*3 2.6 C 0 km/h
Sensor: Nr:Datum:Temp:Abs-Feuchte:Windchill:Wind:
Aussen-T/F 1301 28-11-2013 05:05:00 2.6 C 5.27 g/m*3 2.6 C 1.6 km/h
1302 28-11-2013 05:10:00 2.6 C 5.27 g/m*3 2.6 C 0 km/h
1303 28-11-2013 05:15:00 2.6 C 5.27 g/m*3 2.6 C 0 km/h
1304 28-11-2013 05:20:00 2.6 C 5.32 g/m*3 2.6 C 0 km/h
1305 28-11-2013 05:25:00 2.6 C 5.27 g/m*3 2.6 C 0 km/h
1306 28-11-2013 05:30:00 2.6 C 5.27 g/m*3 2.6 C 0 km/h
1307 28-11-2013 05:35:00 2.7 C 5.24 g/m*3 2.7 C 0 km/h
1308 28-11-2013 05:40:00 2.7 C 5.3 g/m*3 2.7 C 1.6 km/h
1309 28-11-2013 05:45:00 2.7 C 5.24 g/m*3 2.7 C 0 km/h
1310 28-11-2013 05:50:00 2.7 C 5.24 g/m*3 2.7 C 0 km/h
1311 28-11-2013 05:55:00 2.7 C 5.24 g/m*3 2.7 C 3.2 km/h
1312 28-11-2013 06:00:00 2.7 C 5.24 g/m*3 2.7 C 3.2 km/h
1313 28-11-2013 06:05:00 2.7 C 5.3 g/m*3 0.94 C 6.4 km/h
1314 28-11-2013 06:10:00 2.7 C 5.3 g/m*3 0.4 C 8.1 km/h
1315 28-11-2013 06:15:00 2.7 C 5.3 g/m*3 2.7 C 0 km/h
1316 28-11-2013 06:20:00 2.7 C 5.36 g/m*3 2.7 C 1.6 km/h
1317 28-11-2013 06:25:00 2.7 C 5.36 g/m*3 2.7 C 0 km/h
1318 28-11-2013 06:30:00 2.7 C 5.36 g/m*3 2.7 C 1.6 km/h
1319 28-11-2013 06:35:00 2.7 C 5.36 g/m*3 2.7 C 1.6 km/h
1320 28-11-2013 06:40:00 2.7 C 5.36 g/m*3 2.7 C 1.6 km/h
1321 28-11-2013 06:45:00 2.7 C 5.42 g/m*3 2.7 C 0 km/h
1322 28-11-2013 06:50:00 2.6 C 5.38 g/m*3 2.6 C 1.6 km/h
1323 28-11-2013 06:55:00 2.6 C 5.38 g/m*3 2.6 C 0 km/h
1324 28-11-2013 07:00:00 2.6 C 5.38 g/m*3 2.6 C 0 km/h
1325 28-11-2013 07:05:00 2.6 C 5.44 g/m*3 2.6 C 0 km/h
Sensor: Nr:Datum:Temp:Abs-Feuchte:Windchill:Wind:
Aussen-T/F 1326 28-11-2013 07:10:00 2.6 C 5.44 g/m*3 2.6 C 0 km/h
1327 28-11-2013 07:15:00 2.6 C 5.44 g/m*3 2.6 C 0 km/h
1328 28-11-2013 07:20:00 2.6 C 5.44 g/m*3 2.6 C 3.2 km/h
1329 28-11-2013 07:25:00 2.6 C 5.44 g/m*3 2.6 C 0 km/h
1330 28-11-2013 07:30:00 2.6 C 5.44 g/m*3 2.6 C 0 km/h
1331 28-11-2013 07:35:00 2.6 C 5.5 g/m*3 2.6 C 0 km/h
1332 28-11-2013 07:40:00 2.6 C 5.5 g/m*3 2.6 C 0 km/h
1333 28-11-2013 07:45:00 2.6 C 5.5 g/m*3 2.6 C 3.2 km/h
1334 28-11-2013 07:50:00 2.6 C 5.5 g/m*3 2.6 C 4.8 km/h
1335 28-11-2013 07:55:00 2.6 C 5.5 g/m*3 0.82 C 6.4 km/h
1336 28-11-2013 08:00:00 2.5 C 5.46 g/m*3 2.5 C 3.2 km/h
1337 28-11-2013 08:05:00 2.5 C 5.46 g/m*3 0.71 C 6.4 km/h
1338 28-11-2013 08:10:00 2.5 C 5.46 g/m*3 2.5 C 3.2 km/h
1339 28-11-2013 08:15:00 2.5 C 5.46 g/m*3 2.5 C 1.6 km/h
1340 28-11-2013 08:20:00 2.5 C 5.52 g/m*3 2.5 C 0 km/h
1341 28-11-2013 08:25:00 2.5 C 5.52 g/m*3 2.5 C 0 km/h
1342 28-11-2013 08:30:00 2.5 C 5.52 g/m*3 2.5 C 0 km/h
1343 28-11-2013 08:35:00 2.5 C 5.52 g/m*3 2.5 C 3.2 km/h
1344 28-11-2013 08:40:00 2.5 C 5.52 g/m*3 2.5 C 0 km/h
1345 28-11-2013 08:45:00 2.5 C 5.52 g/m*3 2.5 C 0 km/h
1346 28-11-2013 08:50:00 2.5 C 5.52 g/m*3 2.5 C 4.8 km/h
1347 28-11-2013 08:55:00 2.5 C 5.52 g/m*3 2.5 C 4.8 km/h
1348 28-11-2013 09:00:00 2.5 C 5.52 g/m*3 2.5 C 3.2 km/h
1349 28-11-2013 09:05:00 2.6 C 5.56 g/m*3 2.6 C 4.8 km/h
1350 28-11-2013 09:10:00 2.6 C 5.56 g/m*3 2.6 C 3.2 km/h
Sensor: Nr:Datum:Temp:Abs-Feuchte:Windchill:Wind:
Aussen-T/F 1351 28-11-2013 09:15:00 2.6 C 5.56 g/m*3 2.6 C 3.2 km/h
1352 28-11-2013 09:20:00 2.6 C 5.56 g/m*3 2.6 C 1.6 km/h
1353 28-11-2013 09:25:00 2.6 C 5.56 g/m*3 2.6 C 0 km/h
1354 28-11-2013 09:30:00 2.6 C 5.56 g/m*3 2.6 C 1.6 km/h
1355 28-11-2013 09:35:00 2.6 C 5.56 g/m*3 2.6 C 1.6 km/h
1356 28-11-2013 09:40:00 2.6 C 5.56 g/m*3 2.6 C 3.2 km/h
1357 28-11-2013 09:45:00 2.6 C 5.56 g/m*3 2.6 C 3.2 km/h
1358 28-11-2013 09:50:00 2.7 C 5.59 g/m*3 2.7 C 3.2 km/h
1359 28-11-2013 09:55:00 2.7 C 5.59 g/m*3 0.94 C 6.4 km/h
1360 28-11-2013 10:00:00 2.7 C 5.59 g/m*3 2.7 C 4.8 km/h
1361 28-11-2013 10:05:00 2.8 C 5.63 g/m*3 1.05 C 6.4 km/h
1362 28-11-2013 10:10:00 2.8 C 5.63 g/m*3 0.52 C 8.1 km/h
1363 28-11-2013 10:15:00 2.8 C 5.63 g/m*3 2.8 C 4.8 km/h
1364 28-11-2013 10:20:00 2.9 C 5.73 g/m*3 2.9 C 4.8 km/h
1365 28-11-2013 10:25:00 2.9 C 5.67 g/m*3 2.9 C 3.2 km/h
1366 28-11-2013 10:30:00 3 C 5.71 g/m*3 3 C 3.2 km/h
1367 28-11-2013 10:35:00 3.1 C 5.75 g/m*3 3.1 C 3.2 km/h
1368 28-11-2013 10:40:00 3.1 C 5.81 g/m*3 3.1 C 4.8 km/h
1369 28-11-2013 10:45:00 3.1 C 5.81 g/m*3 3.1 C 3.2 km/h
1370 28-11-2013 10:50:00 3.1 C 5.81 g/m*3 3.1 C 1.6 km/h
1371 28-11-2013 10:55:00 3.2 C 5.79 g/m*3 3.2 C 1.6 km/h
1372 28-11-2013 11:00:00 3.2 C 5.79 g/m*3 3.2 C 3.2 km/h
1373 28-11-2013 11:05:00 3.2 C 5.79 g/m*3 3.2 C 3.2 km/h
1374 28-11-2013 11:10:00 3.3 C 5.82 g/m*3 3.3 C 3.2 km/h
1375 28-11-2013 11:15:00 3.3 C 5.82 g/m*3 3.3 C 3.2 km/h
Sensor: Nr:Datum:Temp:Abs-Feuchte:Windchill:Wind:
Aussen-T/F 1376 28-11-2013 11:20:00 3.3 C 5.88 g/m*3 3.3 C 4.8 km/h
1377 28-11-2013 11:25:00 3.4 C 5.86 g/m*3 3.4 C 4.8 km/h
1378 28-11-2013 11:30:00 3.5 C 5.9 g/m*3 1.86 C 6.4 km/h
1379 28-11-2013 11:35:00 3.5 C 5.9 g/m*3 1.86 C 6.4 km/h
1380 28-11-2013 11:40:00 3.6 C 5.94 g/m*3 3.6 C 4.8 km/h
1381 28-11-2013 11:45:00 3.7 C 5.98 g/m*3 3.7 C 4.8 km/h
1382 28-11-2013 11:50:00 3.6 C 5.94 g/m*3 1.98 C 6.4 km/h
1383 28-11-2013 11:55:00 3.7 C 5.98 g/m*3 2.09 C 6.4 km/h
1384 28-11-2013 12:00:00 3.7 C 5.98 g/m*3 3.7 C 4.8 km/h
1385 28-11-2013 12:05:00 3.8 C 6.02 g/m*3 3.8 C 3.2 km/h
1386 28-11-2013 12:10:00 3.8 C 6.02 g/m*3 3.8 C 4.8 km/h
1387 28-11-2013 12:15:00 3.8 C 6.02 g/m*3 2.21 C 6.4 km/h
1388 28-11-2013 12:20:00 3.9 C 6.06 g/m*3 3.9 C 4.8 km/h
1389 28-11-2013 12:25:00 3.9 C 6.06 g/m*3 3.9 C 3.2 km/h
1390 28-11-2013 12:30:00 3.9 C 6.06 g/m*3 3.9 C 4.8 km/h
1391 28-11-2013 12:35:00 4 C 6.1 g/m*3 4 C 4.8 km/h
1392 28-11-2013 12:40:00 4.1 C 6.14 g/m*3 4.1 C 4.8 km/h
1393 28-11-2013 12:45:00 4.1 C 6.14 g/m*3 2.55 C 6.4 km/h
1394 28-11-2013 12:50:00 4.1 C 6.14 g/m*3 2.55 C 6.4 km/h
1395 28-11-2013 12:55:00 4.1 C 6.14 g/m*3 2.05 C 8.1 km/h
1396 28-11-2013 13:00:00 4.1 C 6.14 g/m*3 2.05 C 8.1 km/h
1397 28-11-2013 13:05:00 4.2 C 6.19 g/m*3 2.67 C 6.4 km/h
1398 28-11-2013 13:10:00 4.1 C 6.14 g/m*3 2.55 C 6.4 km/h
1399 28-11-2013 13:15:00 4.1 C 6.14 g/m*3 2.05 C 8.1 km/h
1400 28-11-2013 13:20:00 4.1 C 6.14 g/m*3 4.1 C 3.2 km/h
Sensor: Nr:Datum:Temp:Abs-Feuchte:Windchill:Wind:
Aussen-T/F 1401 28-11-2013 13:25:00 4.1 C 6.14 g/m*3 4.1 C 3.2 km/h
1402 28-11-2013 13:30:00 4.1 C 6.14 g/m*3 4.1 C 4.8 km/h
1403 28-11-2013 13:35:00 4.1 C 6.14 g/m*3 4.1 C 3.2 km/h
1404 28-11-2013 13:40:00 4.1 C 6.14 g/m*3 4.1 C 0 km/h
1405 28-11-2013 13:45:00 4.1 C 6.14 g/m*3 4.1 C 0 km/h
1406 28-11-2013 13:50:00 4.1 C 6.14 g/m*3 4.1 C 3.2 km/h
1407 28-11-2013 13:55:00 4.1 C 6.14 g/m*3 4.1 C 4.8 km/h
1408 28-11-2013 14:00:00 4.2 C 6.19 g/m*3 4.2 C 3.2 km/h
1409 28-11-2013 14:05:00 4.2 C 6.19 g/m*3 4.2 C 1.6 km/h
1410 28-11-2013 14:10:00 4.2 C 6.19 g/m*3 4.2 C 4.8 km/h
1411 28-11-2013 14:15:00 4.3 C 6.23 g/m*3 4.3 C 3.2 km/h
1412 28-11-2013 14:20:00 4.3 C 6.23 g/m*3 4.3 C 4.8 km/h
1413 28-11-2013 14:25:00 4.3 C 6.23 g/m*3 4.3 C 4.8 km/h
1414 28-11-2013 14:30:00 4.3 C 6.23 g/m*3 2.78 C 6.4 km/h
1415 28-11-2013 14:35:00 4.3 C 6.23 g/m*3 4.3 C 4.8 km/h
1416 28-11-2013 14:40:00 4.3 C 6.23 g/m*3 4.3 C 4.8 km/h
1417 28-11-2013 14:45:00 4.3 C 6.23 g/m*3 2.78 C 6.4 km/h
1418 28-11-2013 14:50:00 4.3 C 6.23 g/m*3 4.3 C 1.6 km/h
1419 28-11-2013 14:55:00 4.3 C 6.23 g/m*3 2.78 C 6.4 km/h
1420 28-11-2013 15:00:00 4.3 C 6.29 g/m*3 4.3 C 4.8 km/h
1421 28-11-2013 15:05:00 4.4 C 6.27 g/m*3 4.4 C 3.2 km/h
1422 28-11-2013 15:10:00 4.4 C 6.27 g/m*3 4.4 C 1.6 km/h
1423 28-11-2013 15:15:00 4.4 C 6.27 g/m*3 4.4 C 1.6 km/h
1424 28-11-2013 16:00:00 4.4 C 6.27 g/m*3 4.4 C 1.6 km/h
1425 28-11-2013 16:05:00 4.4 C 6.27 g/m*3 4.4 C 3.2 km/h
Sensor: Nr:Datum:Temp:Abs-Feuchte:Windchill:Wind:
Aussen-T/F 1426 28-11-2013 16:10:00 4.4 C 6.27 g/m*3 4.4 C 0 km/h
1427 28-11-2013 16:15:00 4.5 C 6.31 g/m*3 4.5 C 0 km/h
1428 28-11-2013 16:20:00 4.5 C 6.31 g/m*3 4.5 C 0 km/h
1429 28-11-2013 16:25:00 4.5 C 6.31 g/m*3 3.02 C 6.4 km/h
1430 28-11-2013 16:30:00 4.5 C 6.31 g/m*3 4.5 C 1.6 km/h
1431 28-11-2013 16:35:00 4.5 C 6.31 g/m*3 4.5 C 0 km/h
1432 28-11-2013 16:40:00 4.5 C 6.31 g/m*3 4.5 C 4.8 km/h
1433 28-11-2013 16:45:00 4.5 C 6.31 g/m*3 4.5 C 0 km/h
1434 28-11-2013 16:50:00 4.4 C 6.27 g/m*3 4.4 C 4.8 km/h
1435 28-11-2013 16:55:00 4.4 C 6.27 g/m*3 4.4 C 1.6 km/h
1436 28-11-2013 17:00:00 4.5 C 6.31 g/m*3 4.5 C 3.2 km/h
1437 28-11-2013 17:05:00 4.5 C 6.31 g/m*3 4.5 C 4.8 km/h
1438 28-11-2013 17:10:00 4.5 C 6.31 g/m*3 4.5 C 4.8 km/h
1439 28-11-2013 17:15:00 4.5 C 6.31 g/m*3 2.13 C 9.7 km/h
1440 28-11-2013 17:20:00 4.5 C 6.31 g/m*3 4.5 C 0 km/h
1441 28-11-2013 17:25:00 4.6 C 6.35 g/m*3 4.6 C 4.8 km/h
1442 28-11-2013 17:30:00 4.6 C 6.35 g/m*3 4.6 C 1.6 km/h
1443 28-11-2013 17:35:00 4.7 C 6.39 g/m*3 4.7 C 0 km/h
1444 28-11-2013 17:40:00 4.7 C 6.39 g/m*3 4.7 C 3.2 km/h
1445 28-11-2013 17:45:00 4.7 C 6.39 g/m*3 4.7 C 4.8 km/h
1446 28-11-2013 17:50:00 4.7 C 6.39 g/m*3 4.7 C 0 km/h
1447 28-11-2013 17:55:00 4.7 C 6.39 g/m*3 2.76 C 8.1 km/h
1448 28-11-2013 18:00:00 4.7 C 6.39 g/m*3 4.7 C 3.2 km/h
1449 28-11-2013 18:05:00 4.7 C 6.39 g/m*3 4.7 C 4.8 km/h
1450 28-11-2013 18:10:00 4.7 C 6.39 g/m*3 2.76 C 8.1 km/h
Sensor: Nr:Datum:Temp:Abs-Feuchte:Windchill:Wind:
Aussen-T/F 1451 28-11-2013 18:15:00 4.7 C 6.39 g/m*3 2.37 C 9.7 km/h
1452 28-11-2013 18:20:00 4.7 C 6.39 g/m*3 4.7 C 4.8 km/h
1453 28-11-2013 18:25:00 4.7 C 6.39 g/m*3 4.7 C 3.2 km/h
1454 28-11-2013 18:30:00 4.7 C 6.39 g/m*3 4.7 C 4.8 km/h
1455 28-11-2013 19:35:00 4.7 C 6.39 g/m*3 4.7 C 3.2 km/h
1456 28-11-2013 19:40:00 4.7 C 6.39 g/m*3 4.7 C 3.2 km/h
1457 28-11-2013 19:45:00 4.7 C 6.39 g/m*3 4.7 C 4.8 km/h
1458 28-11-2013 19:50:00 4.8 C 6.44 g/m*3 3.36 C 6.4 km/h
1459 28-11-2013 19:55:00 4.8 C 6.44 g/m*3 4.8 C 4.8 km/h
1460 28-11-2013 20:00:00 4.8 C 6.44 g/m*3 4.8 C 3.2 km/h
1461 28-11-2013 20:05:00 4.8 C 6.44 g/m*3 4.8 C 4.8 km/h
1462 28-11-2013 20:10:00 4.8 C 6.44 g/m*3 3.36 C 6.4 km/h
1463 28-11-2013 20:15:00 4.8 C 6.44 g/m*3 4.8 C 4.8 km/h
1464 28-11-2013 20:20:00 4.8 C 6.44 g/m*3 4.8 C 4.8 km/h
1465 28-11-2013 20:25:00 4.8 C 6.44 g/m*3 4.8 C 3.2 km/h
1466 28-11-2013 20:30:00 4.8 C 6.44 g/m*3 4.8 C 4.8 km/h
1467 28-11-2013 20:35:00 4.8 C 6.44 g/m*3 4.8 C 4.8 km/h
1468 28-11-2013 20:40:00 4.8 C 6.44 g/m*3 4.8 C 3.2 km/h
1469 28-11-2013 20:45:00 4.8 C 6.44 g/m*3 3.36 C 6.4 km/h
1470 28-11-2013 20:50:00 4.8 C 6.44 g/m*3 4.8 C 0 km/h
1471 28-11-2013 20:55:00 4.8 C 6.44 g/m*3 4.8 C 0 km/h
1472 28-11-2013 21:00:00 4.8 C 6.44 g/m*3 4.8 C 0 km/h
1473 28-11-2013 21:05:00 4.9 C 6.48 g/m*3 4.9 C 3.2 km/h
1474 28-11-2013 21:10:00 4.9 C 6.48 g/m*3 4.9 C 0 km/h
1475 28-11-2013 21:15:00 4.8 C 6.44 g/m*3 4.8 C 3.2 km/h
Sensor: Nr:Datum:Temp:Abs-Feuchte:Windchill:Wind:
Aussen-T/F 1476 28-11-2013 21:20:00 4.8 C 6.44 g/m*3 4.8 C 4.8 km/h
1477 28-11-2013 21:25:00 4.8 C 6.44 g/m*3 4.8 C 3.2 km/h
1478 28-11-2013 21:30:00 4.8 C 6.44 g/m*3 4.8 C 4.8 km/h
1479 28-11-2013 21:35:00 4.8 C 6.44 g/m*3 4.8 C 1.6 km/h
1480 28-11-2013 21:40:00 4.8 C 6.44 g/m*3 4.8 C 0 km/h
1481 28-11-2013 21:45:00 4.8 C 6.44 g/m*3 4.8 C 1.6 km/h
1482 28-11-2013 21:50:00 4.8 C 6.44 g/m*3 4.8 C 0 km/h
1483 28-11-2013 21:55:00 4.8 C 6.44 g/m*3 4.8 C 3.2 km/h
1484 28-11-2013 22:00:00 4.8 C 6.44 g/m*3 4.8 C 1.6 km/h
1485 28-11-2013 22:05:00 4.8 C 6.44 g/m*3 4.8 C 0 km/h
1486 28-11-2013 22:10:00 4.8 C 6.44 g/m*3 4.8 C 0 km/h
1487 28-11-2013 22:15:00 4.8 C 6.44 g/m*3 4.8 C 0 km/h
1488 28-11-2013 22:20:00 4.8 C 6.44 g/m*3 4.8 C 1.6 km/h
1489 28-11-2013 22:25:00 4.8 C 6.44 g/m*3 4.8 C 1.6 km/h
1490 28-11-2013 22:30:00 4.8 C 6.44 g/m*3 4.8 C 0 km/h
1491 28-11-2013 22:35:00 4.8 C 6.44 g/m*3 4.8 C 3.2 km/h
1492 28-11-2013 22:40:00 4.8 C 6.44 g/m*3 4.8 C 3.2 km/h
1493 28-11-2013 22:45:00 4.8 C 6.44 g/m*3 4.8 C 1.6 km/h
1494 28-11-2013 22:50:00 4.8 C 6.44 g/m*3 4.8 C 3.2 km/h
1495 28-11-2013 22:55:00 4.8 C 6.44 g/m*3 3.36 C 6.4 km/h
1496 28-11-2013 23:00:00 4.8 C 6.44 g/m*3 4.8 C 3.2 km/h
1497 28-11-2013 23:05:00 4.8 C 6.44 g/m*3 3.36 C 6.4 km/h
1498 28-11-2013 23:10:00 4.8 C 6.44 g/m*3 4.8 C 0 km/h
1499 28-11-2013 23:15:00 4.8 C 6.44 g/m*3 4.8 C 0 km/h
1500 28-11-2013 23:20:00 4.8 C 6.44 g/m*3 4.8 C 3.2 km/h
Sensor: Nr:Datum:Temp:Abs-Feuchte:Windchill:Wind:
Aussen-T/F 1501 28-11-2013 23:25:00 4.8 C 6.44 g/m*3 2.49 C 9.7 km/h
1502 28-11-2013 23:30:00 4.8 C 6.44 g/m*3 4.8 C 3.2 km/h
1503 28-11-2013 23:35:00 4.8 C 6.44 g/m*3 4.8 C 0 km/h
1504 28-11-2013 23:40:00 4.7 C 6.39 g/m*3 2.76 C 8.1 km/h
1505 28-11-2013 23:45:00 4.7 C 6.39 g/m*3 2.76 C 8.1 km/h
1506 28-11-2013 23:50:00 4.8 C 6.44 g/m*3 4.8 C 3.2 km/h
1507 28-11-2013 23:55:00 4.8 C 6.44 g/m*3 4.8 C 0 km/h

Legende:
   Min
   Max


Maximal/Minimal-Werte vom 22.11.2013 - 28.11.2013

Sensor Min Max Avg
Temp
(Aussen-T/F)
-0.8 °C
26-11-2013  05:40:00
7.8 °C
23-11-2013  13:40:00
3.04 °C
Abs-Feuchte
(Aussen-T/F)
4.35 g/m*3
27-11-2013  07:30:00
8.11 g/m*3
23-11-2013  12:40:00
5.51 g/m*3
Windchill
(Aussen-T/F)
-3 C
26-11-2013  09:35:00
7.4 C
23-11-2013  15:50:00
2.47 C

Die Daten stammen von einer Davis Vantage Pro 2 Wetter-Station und werden unter Linux mit der Software wview2wettercgi und aufbereitet. Alle Angaben erfolgen ohne Gewähr für ihre Vollständigkeit oder Richtigkeit.
Kontakt: Rainer Krienke krienke@uni-koblenz.de . Meine Webseiten an der Uni Koblenz oder privat.
Version: $Revision: 0.78 $